<?xml version="1.0" encoding="UTF-8" standalone="no" ?>
<gpx xmlns="http://www.topografix.com/GPX/1/1" xmlns:xsi="http://www.w3.org/2001/XMLSchema-instance" xsi:schemaLocation="http://www.topografix.com/GPX/1/1 http://www.topografix.com/GPX/1/1/gpx.xsd" version="1.1" creator="VisuGPX - https://www.visugpx.com">
  <metadata>
    <name>03 - Tour de la Tournette</name>
    <desc><![CDATA[
03 - Tour de la Tournette]]></desc>
  </metadata>
  <trk>
    <name><![CDATA[03 - Tour de la Tournette]]></name>
    <desc><![CDATA[03 - Tour de la Tournette]]></desc>
    <trkseg>
      <trkpt lat="45.90007" lon="6.12808">
        <ele>459</ele>
        <time>2022-04-06T10:04:26.000Z</time>
      </trkpt>
      <trkpt lat="45.90107" lon="6.12752">
        <ele>454</ele>
        <time>2022-04-06T10:04:27.000Z</time>
      </trkpt>
      <trkpt lat="45.90109" lon="6.12754">
        <ele>454</ele>
        <time>2022-04-06T10:04:28.000Z</time>
      </trkpt>
      <trkpt lat="45.90121" lon="6.1277">
        <ele>454</ele>
        <time>2022-04-06T10:04:29.000Z</time>
      </trkpt>
      <trkpt lat="45.90124" lon="6.12776">
        <ele>454</ele>
        <time>2022-04-06T10:04:30.000Z</time>
      </trkpt>
      <trkpt lat="45.90218" lon="6.13126">
        <ele>448</ele>
        <time>2022-04-06T10:04:31.000Z</time>
      </trkpt>
      <trkpt lat="45.9022" lon="6.13132">
        <ele>448</ele>
        <time>2022-04-06T10:04:32.000Z</time>
      </trkpt>
      <trkpt lat="45.90345" lon="6.13581">
        <ele>457</ele>
        <time>2022-04-06T10:04:33.000Z</time>
      </trkpt>
      <trkpt lat="45.90346" lon="6.13586">
        <ele>457</ele>
        <time>2022-04-06T10:04:34.000Z</time>
      </trkpt>
      <trkpt lat="45.90482" lon="6.14091">
        <ele>452</ele>
        <time>2022-04-06T10:04:35.000Z</time>
      </trkpt>
      <trkpt lat="45.90484" lon="6.14098">
        <ele>452</ele>
        <time>2022-04-06T10:04:36.000Z</time>
      </trkpt>
      <trkpt lat="45.90519" lon="6.14244">
        <ele>451</ele>
        <time>2022-04-06T10:04:37.000Z</time>
      </trkpt>
      <trkpt lat="45.90519" lon="6.14249">
        <ele>451</ele>
        <time>2022-04-06T10:04:38.000Z</time>
      </trkpt>
      <trkpt lat="45.9052" lon="6.14268">
        <ele>451</ele>
        <time>2022-04-06T10:04:39.000Z</time>
      </trkpt>
      <trkpt lat="45.9052" lon="6.14275">
        <ele>451</ele>
        <time>2022-04-06T10:04:40.000Z</time>
      </trkpt>
      <trkpt lat="45.9052" lon="6.14333">
        <ele>453</ele>
        <time>2022-04-06T10:04:41.000Z</time>
      </trkpt>
      <trkpt lat="45.90519" lon="6.1434">
        <ele>453</ele>
        <time>2022-04-06T10:04:42.000Z</time>
      </trkpt>
      <trkpt lat="45.90488" lon="6.14456">
        <ele>453</ele>
        <time>2022-04-06T10:04:43.000Z</time>
      </trkpt>
      <trkpt lat="45.90486" lon="6.14462">
        <ele>453</ele>
        <time>2022-04-06T10:04:44.000Z</time>
      </trkpt>
      <trkpt lat="45.90466" lon="6.14587">
        <ele>452</ele>
        <time>2022-04-06T10:04:45.000Z</time>
      </trkpt>
      <trkpt lat="45.90466" lon="6.14591">
        <ele>452</ele>
        <time>2022-04-06T10:04:46.000Z</time>
      </trkpt>
      <trkpt lat="45.90518" lon="6.15023">
        <ele>450</ele>
        <time>2022-04-06T10:04:47.000Z</time>
      </trkpt>
      <trkpt lat="45.90519" lon="6.15028">
        <ele>450</ele>
        <time>2022-04-06T10:04:48.000Z</time>
      </trkpt>
      <trkpt lat="45.90606" lon="6.15603">
        <ele>449</ele>
        <time>2022-04-06T10:04:49.000Z</time>
      </trkpt>
      <trkpt lat="45.90606" lon="6.15607">
        <ele>449</ele>
        <time>2022-04-06T10:04:50.000Z</time>
      </trkpt>
      <trkpt lat="45.90598" lon="6.15653">
        <ele>449</ele>
        <time>2022-04-06T10:04:51.000Z</time>
      </trkpt>
      <trkpt lat="45.90597" lon="6.15659">
        <ele>449</ele>
        <time>2022-04-06T10:04:52.000Z</time>
      </trkpt>
      <trkpt lat="45.90557" lon="6.15827">
        <ele>451</ele>
        <time>2022-04-06T10:04:53.000Z</time>
      </trkpt>
      <trkpt lat="45.90558" lon="6.15831">
        <ele>451</ele>
        <time>2022-04-06T10:04:54.000Z</time>
      </trkpt>
      <trkpt lat="45.90589" lon="6.15869">
        <ele>451</ele>
        <time>2022-04-06T10:04:55.000Z</time>
      </trkpt>
      <trkpt lat="45.90593" lon="6.15872">
        <ele>451</ele>
        <time>2022-04-06T10:04:56.000Z</time>
      </trkpt>
      <trkpt lat="45.90749" lon="6.15881">
        <ele>453</ele>
        <time>2022-04-06T10:04:57.000Z</time>
      </trkpt>
      <trkpt lat="45.90752" lon="6.15881">
        <ele>453</ele>
        <time>2022-04-06T10:04:58.000Z</time>
      </trkpt>
      <trkpt lat="45.908" lon="6.15872">
        <ele>453</ele>
        <time>2022-04-06T10:04:59.000Z</time>
      </trkpt>
      <trkpt lat="45.90803" lon="6.1587">
        <ele>453</ele>
        <time>2022-04-06T10:05:00.000Z</time>
      </trkpt>
      <trkpt lat="45.91048" lon="6.15718">
        <ele>455</ele>
        <time>2022-04-06T10:05:01.000Z</time>
      </trkpt>
      <trkpt lat="45.91051" lon="6.15716">
        <ele>455</ele>
        <time>2022-04-06T10:05:02.000Z</time>
      </trkpt>
      <trkpt lat="45.91148" lon="6.15655">
        <ele>464</ele>
        <time>2022-04-06T10:05:03.000Z</time>
      </trkpt>
      <trkpt lat="45.9115" lon="6.15652">
        <ele>464</ele>
        <time>2022-04-06T10:05:04.000Z</time>
      </trkpt>
      <trkpt lat="45.91239" lon="6.15534">
        <ele>462</ele>
        <time>2022-04-06T10:05:05.000Z</time>
      </trkpt>
      <trkpt lat="45.91242" lon="6.1553">
        <ele>462</ele>
        <time>2022-04-06T10:05:06.000Z</time>
      </trkpt>
      <trkpt lat="45.91329" lon="6.15414">
        <ele>461</ele>
        <time>2022-04-06T10:05:07.000Z</time>
      </trkpt>
      <trkpt lat="45.91331" lon="6.15411">
        <ele>461</ele>
        <time>2022-04-06T10:05:08.000Z</time>
      </trkpt>
      <trkpt lat="45.91483" lon="6.15139">
        <ele>466</ele>
        <time>2022-04-06T10:05:09.000Z</time>
      </trkpt>
      <trkpt lat="45.91485" lon="6.15141">
        <ele>466</ele>
        <time>2022-04-06T10:05:10.000Z</time>
      </trkpt>
      <trkpt lat="45.91507" lon="6.15164">
        <ele>469</ele>
        <time>2022-04-06T10:05:11.000Z</time>
      </trkpt>
      <trkpt lat="45.91512" lon="6.15166">
        <ele>469</ele>
        <time>2022-04-06T10:05:12.000Z</time>
      </trkpt>
      <trkpt lat="45.91539" lon="6.15164">
        <ele>469</ele>
        <time>2022-04-06T10:05:13.000Z</time>
      </trkpt>
      <trkpt lat="45.91543" lon="6.15163">
        <ele>469</ele>
        <time>2022-04-06T10:05:14.000Z</time>
      </trkpt>
      <trkpt lat="45.91702" lon="6.15157">
        <ele>476</ele>
        <time>2022-04-06T10:05:15.000Z</time>
      </trkpt>
      <trkpt lat="45.91704" lon="6.1516">
        <ele>476</ele>
        <time>2022-04-06T10:05:16.000Z</time>
      </trkpt>
      <trkpt lat="45.91713" lon="6.1518">
        <ele>476</ele>
        <time>2022-04-06T10:05:17.000Z</time>
      </trkpt>
      <trkpt lat="45.91715" lon="6.15185">
        <ele>476</ele>
        <time>2022-04-06T10:05:18.000Z</time>
      </trkpt>
      <trkpt lat="45.9172" lon="6.15203">
        <ele>476</ele>
        <time>2022-04-06T10:05:19.000Z</time>
      </trkpt>
      <trkpt lat="45.91721" lon="6.15209">
        <ele>476</ele>
        <time>2022-04-06T10:05:20.000Z</time>
      </trkpt>
      <trkpt lat="45.91734" lon="6.15308">
        <ele>489</ele>
        <time>2022-04-06T10:05:21.000Z</time>
      </trkpt>
      <trkpt lat="45.91734" lon="6.15314">
        <ele>494</ele>
        <time>2022-04-06T10:05:22.000Z</time>
      </trkpt>
      <trkpt lat="45.91722" lon="6.15417">
        <ele>483</ele>
        <time>2022-04-06T10:05:23.000Z</time>
      </trkpt>
      <trkpt lat="45.91721" lon="6.15422">
        <ele>483</ele>
        <time>2022-04-06T10:05:24.000Z</time>
      </trkpt>
      <trkpt lat="45.91705" lon="6.15508">
        <ele>489</ele>
        <time>2022-04-06T10:05:25.000Z</time>
      </trkpt>
      <trkpt lat="45.91706" lon="6.15514">
        <ele>489</ele>
        <time>2022-04-06T10:05:26.000Z</time>
      </trkpt>
      <trkpt lat="45.91722" lon="6.15558">
        <ele>489</ele>
        <time>2022-04-06T10:05:27.000Z</time>
      </trkpt>
      <trkpt lat="45.91725" lon="6.15562">
        <ele>509</ele>
        <time>2022-04-06T10:05:28.000Z</time>
      </trkpt>
      <trkpt lat="45.91803" lon="6.15593">
        <ele>509</ele>
        <time>2022-04-06T10:05:29.000Z</time>
      </trkpt>
      <trkpt lat="45.91806" lon="6.15591">
        <ele>509</ele>
        <time>2022-04-06T10:05:30.000Z</time>
      </trkpt>
      <trkpt lat="45.91877" lon="6.15545">
        <ele>513</ele>
        <time>2022-04-06T10:05:31.000Z</time>
      </trkpt>
      <trkpt lat="45.91882" lon="6.15544">
        <ele>513</ele>
        <time>2022-04-06T10:05:32.000Z</time>
      </trkpt>
      <trkpt lat="45.91909" lon="6.15552">
        <ele>517</ele>
        <time>2022-04-06T10:05:33.000Z</time>
      </trkpt>
      <trkpt lat="45.91908" lon="6.15556">
        <ele>517</ele>
        <time>2022-04-06T10:05:34.000Z</time>
      </trkpt>
      <trkpt lat="45.91897" lon="6.1562">
        <ele>517</ele>
        <time>2022-04-06T10:05:35.000Z</time>
      </trkpt>
      <trkpt lat="45.91896" lon="6.15623">
        <ele>517</ele>
        <time>2022-04-06T10:05:36.000Z</time>
      </trkpt>
      <trkpt lat="45.91887" lon="6.15668">
        <ele>511</ele>
        <time>2022-04-06T10:05:37.000Z</time>
      </trkpt>
      <trkpt lat="45.91888" lon="6.15673">
        <ele>511</ele>
        <time>2022-04-06T10:05:38.000Z</time>
      </trkpt>
      <trkpt lat="45.91906" lon="6.15758">
        <ele>515</ele>
        <time>2022-04-06T10:05:39.000Z</time>
      </trkpt>
      <trkpt lat="45.91908" lon="6.15764">
        <ele>515</ele>
        <time>2022-04-06T10:05:40.000Z</time>
      </trkpt>
      <trkpt lat="45.91955" lon="6.15928">
        <ele>520</ele>
        <time>2022-04-06T10:05:41.000Z</time>
      </trkpt>
      <trkpt lat="45.91957" lon="6.15934">
        <ele>520</ele>
        <time>2022-04-06T10:05:42.000Z</time>
      </trkpt>
      <trkpt lat="45.921" lon="6.16453">
        <ele>556</ele>
        <time>2022-04-06T10:05:43.000Z</time>
      </trkpt>
      <trkpt lat="45.92102" lon="6.16456">
        <ele>556</ele>
        <time>2022-04-06T10:05:44.000Z</time>
      </trkpt>
      <trkpt lat="45.92118" lon="6.16483">
        <ele>557</ele>
        <time>2022-04-06T10:05:45.000Z</time>
      </trkpt>
      <trkpt lat="45.92121" lon="6.16486">
        <ele>557</ele>
        <time>2022-04-06T10:05:46.000Z</time>
      </trkpt>
      <trkpt lat="45.92142" lon="6.16495">
        <ele>559</ele>
        <time>2022-04-06T10:05:47.000Z</time>
      </trkpt>
      <trkpt lat="45.92145" lon="6.16496">
        <ele>559</ele>
        <time>2022-04-06T10:05:48.000Z</time>
      </trkpt>
      <trkpt lat="45.92206" lon="6.16514">
        <ele>559</ele>
        <time>2022-04-06T10:05:49.000Z</time>
      </trkpt>
      <trkpt lat="45.92209" lon="6.16515">
        <ele>559</ele>
        <time>2022-04-06T10:05:50.000Z</time>
      </trkpt>
      <trkpt lat="45.9226" lon="6.16524">
        <ele>559</ele>
        <time>2022-04-06T10:05:51.000Z</time>
      </trkpt>
      <trkpt lat="45.92262" lon="6.16528">
        <ele>559</ele>
        <time>2022-04-06T10:05:52.000Z</time>
      </trkpt>
      <trkpt lat="45.92268" lon="6.16557">
        <ele>559</ele>
        <time>2022-04-06T10:05:53.000Z</time>
      </trkpt>
      <trkpt lat="45.92268" lon="6.16565">
        <ele>561</ele>
        <time>2022-04-06T10:05:54.000Z</time>
      </trkpt>
      <trkpt lat="45.92263" lon="6.16579">
        <ele>561</ele>
        <time>2022-04-06T10:05:55.000Z</time>
      </trkpt>
      <trkpt lat="45.92262" lon="6.16585">
        <ele>561</ele>
        <time>2022-04-06T10:05:56.000Z</time>
      </trkpt>
      <trkpt lat="45.92257" lon="6.16607">
        <ele>561</ele>
        <time>2022-04-06T10:05:57.000Z</time>
      </trkpt>
      <trkpt lat="45.92256" lon="6.16612">
        <ele>561</ele>
        <time>2022-04-06T10:05:58.000Z</time>
      </trkpt>
      <trkpt lat="45.92236" lon="6.16689">
        <ele>563</ele>
        <time>2022-04-06T10:05:59.000Z</time>
      </trkpt>
      <trkpt lat="45.92235" lon="6.16692">
        <ele>563</ele>
        <time>2022-04-06T10:06:00.000Z</time>
      </trkpt>
      <trkpt lat="45.92204" lon="6.16769">
        <ele>568</ele>
        <time>2022-04-06T10:06:01.000Z</time>
      </trkpt>
      <trkpt lat="45.92202" lon="6.16776">
        <ele>568</ele>
        <time>2022-04-06T10:06:02.000Z</time>
      </trkpt>
      <trkpt lat="45.92181" lon="6.16924">
        <ele>572</ele>
        <time>2022-04-06T10:06:03.000Z</time>
      </trkpt>
      <trkpt lat="45.9218" lon="6.16927">
        <ele>572</ele>
        <time>2022-04-06T10:06:04.000Z</time>
      </trkpt>
      <trkpt lat="45.92173" lon="6.16953">
        <ele>572</ele>
        <time>2022-04-06T10:06:05.000Z</time>
      </trkpt>
      <trkpt lat="45.92173" lon="6.16959">
        <ele>572</ele>
        <time>2022-04-06T10:06:06.000Z</time>
      </trkpt>
      <trkpt lat="45.92173" lon="6.16978">
        <ele>574</ele>
        <time>2022-04-06T10:06:07.000Z</time>
      </trkpt>
      <trkpt lat="45.92172" lon="6.16985">
        <ele>574</ele>
        <time>2022-04-06T10:06:08.000Z</time>
      </trkpt>
      <trkpt lat="45.92165" lon="6.17066">
        <ele>578</ele>
        <time>2022-04-06T10:06:09.000Z</time>
      </trkpt>
      <trkpt lat="45.92166" lon="6.17073">
        <ele>578</ele>
        <time>2022-04-06T10:06:10.000Z</time>
      </trkpt>
      <trkpt lat="45.92168" lon="6.17088">
        <ele>578</ele>
        <time>2022-04-06T10:06:11.000Z</time>
      </trkpt>
      <trkpt lat="45.9217" lon="6.17093">
        <ele>578</ele>
        <time>2022-04-06T10:06:12.000Z</time>
      </trkpt>
      <trkpt lat="45.92177" lon="6.17109">
        <ele>578</ele>
        <time>2022-04-06T10:06:13.000Z</time>
      </trkpt>
      <trkpt lat="45.9218" lon="6.17113">
        <ele>578</ele>
        <time>2022-04-06T10:06:14.000Z</time>
      </trkpt>
      <trkpt lat="45.92221" lon="6.17157">
        <ele>584</ele>
        <time>2022-04-06T10:06:15.000Z</time>
      </trkpt>
      <trkpt lat="45.92223" lon="6.1716">
        <ele>584</ele>
        <time>2022-04-06T10:06:16.000Z</time>
      </trkpt>
      <trkpt lat="45.92268" lon="6.17209">
        <ele>577</ele>
        <time>2022-04-06T10:06:17.000Z</time>
      </trkpt>
      <trkpt lat="45.92271" lon="6.17214">
        <ele>577</ele>
        <time>2022-04-06T10:06:18.000Z</time>
      </trkpt>
      <trkpt lat="45.92284" lon="6.17239">
        <ele>582</ele>
        <time>2022-04-06T10:06:19.000Z</time>
      </trkpt>
      <trkpt lat="45.92286" lon="6.17243">
        <ele>582</ele>
        <time>2022-04-06T10:06:20.000Z</time>
      </trkpt>
      <trkpt lat="45.92311" lon="6.17324">
        <ele>582</ele>
        <time>2022-04-06T10:06:21.000Z</time>
      </trkpt>
      <trkpt lat="45.92313" lon="6.17331">
        <ele>582</ele>
        <time>2022-04-06T10:06:22.000Z</time>
      </trkpt>
      <trkpt lat="45.92326" lon="6.17369">
        <ele>582</ele>
        <time>2022-04-06T10:06:23.000Z</time>
      </trkpt>
      <trkpt lat="45.92326" lon="6.17374">
        <ele>582</ele>
        <time>2022-04-06T10:06:24.000Z</time>
      </trkpt>
      <trkpt lat="45.92329" lon="6.17401">
        <ele>583</ele>
        <time>2022-04-06T10:06:25.000Z</time>
      </trkpt>
      <trkpt lat="45.92328" lon="6.17406">
        <ele>583</ele>
        <time>2022-04-06T10:06:26.000Z</time>
      </trkpt>
      <trkpt lat="45.92324" lon="6.17424">
        <ele>583</ele>
        <time>2022-04-06T10:06:27.000Z</time>
      </trkpt>
      <trkpt lat="45.92322" lon="6.17428">
        <ele>583</ele>
        <time>2022-04-06T10:06:28.000Z</time>
      </trkpt>
      <trkpt lat="45.92297" lon="6.17479">
        <ele>590</ele>
        <time>2022-04-06T10:06:29.000Z</time>
      </trkpt>
      <trkpt lat="45.92295" lon="6.17483">
        <ele>590</ele>
        <time>2022-04-06T10:06:30.000Z</time>
      </trkpt>
      <trkpt lat="45.92272" lon="6.1753">
        <ele>590</ele>
        <time>2022-04-06T10:06:31.000Z</time>
      </trkpt>
      <trkpt lat="45.92269" lon="6.17535">
        <ele>590</ele>
        <time>2022-04-06T10:06:32.000Z</time>
      </trkpt>
      <trkpt lat="45.92224" lon="6.17585">
        <ele>590</ele>
        <time>2022-04-06T10:06:33.000Z</time>
      </trkpt>
      <trkpt lat="45.9222" lon="6.1759">
        <ele>595</ele>
        <time>2022-04-06T10:06:34.000Z</time>
      </trkpt>
      <trkpt lat="45.92198" lon="6.17623">
        <ele>595</ele>
        <time>2022-04-06T10:06:35.000Z</time>
      </trkpt>
      <trkpt lat="45.92195" lon="6.17628">
        <ele>595</ele>
        <time>2022-04-06T10:06:36.000Z</time>
      </trkpt>
      <trkpt lat="45.9214" lon="6.17738">
        <ele>605</ele>
        <time>2022-04-06T10:06:37.000Z</time>
      </trkpt>
      <trkpt lat="45.92138" lon="6.17744">
        <ele>605</ele>
        <time>2022-04-06T10:06:38.000Z</time>
      </trkpt>
      <trkpt lat="45.92132" lon="6.17769">
        <ele>605</ele>
        <time>2022-04-06T10:06:39.000Z</time>
      </trkpt>
      <trkpt lat="45.92131" lon="6.17775">
        <ele>605</ele>
        <time>2022-04-06T10:06:40.000Z</time>
      </trkpt>
      <trkpt lat="45.92129" lon="6.17794">
        <ele>605</ele>
        <time>2022-04-06T10:06:41.000Z</time>
      </trkpt>
      <trkpt lat="45.9213" lon="6.17798">
        <ele>605</ele>
        <time>2022-04-06T10:06:42.000Z</time>
      </trkpt>
      <trkpt lat="45.92132" lon="6.17813">
        <ele>609</ele>
        <time>2022-04-06T10:06:43.000Z</time>
      </trkpt>
      <trkpt lat="45.92133" lon="6.1782">
        <ele>609</ele>
        <time>2022-04-06T10:06:44.000Z</time>
      </trkpt>
      <trkpt lat="45.92161" lon="6.17912">
        <ele>605</ele>
        <time>2022-04-06T10:06:45.000Z</time>
      </trkpt>
      <trkpt lat="45.92162" lon="6.17917">
        <ele>605</ele>
        <time>2022-04-06T10:06:46.000Z</time>
      </trkpt>
      <trkpt lat="45.92167" lon="6.17943">
        <ele>605</ele>
        <time>2022-04-06T10:06:47.000Z</time>
      </trkpt>
      <trkpt lat="45.92167" lon="6.17948">
        <ele>605</ele>
        <time>2022-04-06T10:06:48.000Z</time>
      </trkpt>
      <trkpt lat="45.92166" lon="6.17983">
        <ele>605</ele>
        <time>2022-04-06T10:06:49.000Z</time>
      </trkpt>
      <trkpt lat="45.92165" lon="6.17987">
        <ele>605</ele>
        <time>2022-04-06T10:06:50.000Z</time>
      </trkpt>
      <trkpt lat="45.9216" lon="6.18009">
        <ele>605</ele>
        <time>2022-04-06T10:06:51.000Z</time>
      </trkpt>
      <trkpt lat="45.92158" lon="6.18013">
        <ele>605</ele>
        <time>2022-04-06T10:06:52.000Z</time>
      </trkpt>
      <trkpt lat="45.92137" lon="6.18048">
        <ele>616</ele>
        <time>2022-04-06T10:06:53.000Z</time>
      </trkpt>
      <trkpt lat="45.92134" lon="6.18051">
        <ele>616</ele>
        <time>2022-04-06T10:06:54.000Z</time>
      </trkpt>
      <trkpt lat="45.92097" lon="6.18063">
        <ele>607</ele>
        <time>2022-04-06T10:06:55.000Z</time>
      </trkpt>
      <trkpt lat="45.92094" lon="6.18064">
        <ele>607</ele>
        <time>2022-04-06T10:06:56.000Z</time>
      </trkpt>
      <trkpt lat="45.92062" lon="6.18064">
        <ele>607</ele>
        <time>2022-04-06T10:06:57.000Z</time>
      </trkpt>
      <trkpt lat="45.92058" lon="6.18065">
        <ele>607</ele>
        <time>2022-04-06T10:06:58.000Z</time>
      </trkpt>
      <trkpt lat="45.92031" lon="6.18082">
        <ele>613</ele>
        <time>2022-04-06T10:06:59.000Z</time>
      </trkpt>
      <trkpt lat="45.92027" lon="6.18086">
        <ele>613</ele>
        <time>2022-04-06T10:07:00.000Z</time>
      </trkpt>
      <trkpt lat="45.91994" lon="6.18147">
        <ele>612</ele>
        <time>2022-04-06T10:07:01.000Z</time>
      </trkpt>
      <trkpt lat="45.91993" lon="6.18152">
        <ele>612</ele>
        <time>2022-04-06T10:07:02.000Z</time>
      </trkpt>
      <trkpt lat="45.91992" lon="6.18195">
        <ele>612</ele>
        <time>2022-04-06T10:07:03.000Z</time>
      </trkpt>
      <trkpt lat="45.91993" lon="6.18199">
        <ele>612</ele>
        <time>2022-04-06T10:07:04.000Z</time>
      </trkpt>
      <trkpt lat="45.92011" lon="6.18289">
        <ele>615</ele>
        <time>2022-04-06T10:07:05.000Z</time>
      </trkpt>
      <trkpt lat="45.92011" lon="6.18293">
        <ele>615</ele>
        <time>2022-04-06T10:07:06.000Z</time>
      </trkpt>
      <trkpt lat="45.92012" lon="6.18359">
        <ele>617</ele>
        <time>2022-04-06T10:07:07.000Z</time>
      </trkpt>
      <trkpt lat="45.92011" lon="6.18363">
        <ele>617</ele>
        <time>2022-04-06T10:07:08.000Z</time>
      </trkpt>
      <trkpt lat="45.91992" lon="6.18419">
        <ele>611</ele>
        <time>2022-04-06T10:07:09.000Z</time>
      </trkpt>
      <trkpt lat="45.91989" lon="6.18425">
        <ele>611</ele>
        <time>2022-04-06T10:07:10.000Z</time>
      </trkpt>
      <trkpt lat="45.91957" lon="6.18472">
        <ele>644</ele>
        <time>2022-04-06T10:07:11.000Z</time>
      </trkpt>
      <trkpt lat="45.91953" lon="6.18475">
        <ele>644</ele>
        <time>2022-04-06T10:07:12.000Z</time>
      </trkpt>
      <trkpt lat="45.91924" lon="6.18493">
        <ele>613</ele>
        <time>2022-04-06T10:07:13.000Z</time>
      </trkpt>
      <trkpt lat="45.9192" lon="6.18495">
        <ele>613</ele>
        <time>2022-04-06T10:07:14.000Z</time>
      </trkpt>
      <trkpt lat="45.91872" lon="6.18519">
        <ele>627</ele>
        <time>2022-04-06T10:07:15.000Z</time>
      </trkpt>
      <trkpt lat="45.91868" lon="6.18521">
        <ele>627</ele>
        <time>2022-04-06T10:07:16.000Z</time>
      </trkpt>
      <trkpt lat="45.91835" lon="6.18547">
        <ele>627</ele>
        <time>2022-04-06T10:07:17.000Z</time>
      </trkpt>
      <trkpt lat="45.91832" lon="6.1855">
        <ele>627</ele>
        <time>2022-04-06T10:07:18.000Z</time>
      </trkpt>
      <trkpt lat="45.91813" lon="6.18583">
        <ele>609</ele>
        <time>2022-04-06T10:07:19.000Z</time>
      </trkpt>
      <trkpt lat="45.91812" lon="6.18589">
        <ele>609</ele>
        <time>2022-04-06T10:07:20.000Z</time>
      </trkpt>
      <trkpt lat="45.91803" lon="6.18629">
        <ele>641</ele>
        <time>2022-04-06T10:07:21.000Z</time>
      </trkpt>
      <trkpt lat="45.91803" lon="6.18634">
        <ele>641</ele>
        <time>2022-04-06T10:07:22.000Z</time>
      </trkpt>
      <trkpt lat="45.91807" lon="6.18664">
        <ele>604</ele>
        <time>2022-04-06T10:07:23.000Z</time>
      </trkpt>
      <trkpt lat="45.91808" lon="6.18669">
        <ele>604</ele>
        <time>2022-04-06T10:07:24.000Z</time>
      </trkpt>
      <trkpt lat="45.91846" lon="6.1881">
        <ele>608</ele>
        <time>2022-04-06T10:07:25.000Z</time>
      </trkpt>
      <trkpt lat="45.91847" lon="6.18816">
        <ele>615</ele>
        <time>2022-04-06T10:07:26.000Z</time>
      </trkpt>
      <trkpt lat="45.91866" lon="6.18925">
        <ele>619</ele>
        <time>2022-04-06T10:07:27.000Z</time>
      </trkpt>
      <trkpt lat="45.91867" lon="6.18932">
        <ele>619</ele>
        <time>2022-04-06T10:07:28.000Z</time>
      </trkpt>
      <trkpt lat="45.91887" lon="6.19076">
        <ele>612</ele>
        <time>2022-04-06T10:07:29.000Z</time>
      </trkpt>
      <trkpt lat="45.91888" lon="6.19083">
        <ele>612</ele>
        <time>2022-04-06T10:07:30.000Z</time>
      </trkpt>
      <trkpt lat="45.91881" lon="6.19238">
        <ele>630</ele>
        <time>2022-04-06T10:07:31.000Z</time>
      </trkpt>
      <trkpt lat="45.91881" lon="6.19245">
        <ele>630</ele>
        <time>2022-04-06T10:07:32.000Z</time>
      </trkpt>
      <trkpt lat="45.91897" lon="6.1945">
        <ele>581</ele>
        <time>2022-04-06T10:07:33.000Z</time>
      </trkpt>
      <trkpt lat="45.91896" lon="6.19457">
        <ele>581</ele>
        <time>2022-04-06T10:07:34.000Z</time>
      </trkpt>
      <trkpt lat="45.91887" lon="6.19501">
        <ele>600</ele>
        <time>2022-04-06T10:07:35.000Z</time>
      </trkpt>
      <trkpt lat="45.91886" lon="6.19505">
        <ele>600</ele>
        <time>2022-04-06T10:07:36.000Z</time>
      </trkpt>
      <trkpt lat="45.91865" lon="6.19546">
        <ele>600</ele>
        <time>2022-04-06T10:07:37.000Z</time>
      </trkpt>
      <trkpt lat="45.91863" lon="6.1955">
        <ele>600</ele>
        <time>2022-04-06T10:07:38.000Z</time>
      </trkpt>
      <trkpt lat="45.91833" lon="6.19589">
        <ele>577</ele>
        <time>2022-04-06T10:07:39.000Z</time>
      </trkpt>
      <trkpt lat="45.91831" lon="6.19592">
        <ele>577</ele>
        <time>2022-04-06T10:07:40.000Z</time>
      </trkpt>
      <trkpt lat="45.91808" lon="6.19625">
        <ele>577</ele>
        <time>2022-04-06T10:07:41.000Z</time>
      </trkpt>
      <trkpt lat="45.91806" lon="6.1963">
        <ele>605</ele>
        <time>2022-04-06T10:07:42.000Z</time>
      </trkpt>
      <trkpt lat="45.91763" lon="6.19705">
        <ele>587</ele>
        <time>2022-04-06T10:07:43.000Z</time>
      </trkpt>
      <trkpt lat="45.9176" lon="6.1971">
        <ele>587</ele>
        <time>2022-04-06T10:07:44.000Z</time>
      </trkpt>
      <trkpt lat="45.91704" lon="6.19771">
        <ele>591</ele>
        <time>2022-04-06T10:07:45.000Z</time>
      </trkpt>
      <trkpt lat="45.91701" lon="6.19772">
        <ele>591</ele>
        <time>2022-04-06T10:07:46.000Z</time>
      </trkpt>
      <trkpt lat="45.91576" lon="6.19805">
        <ele>606</ele>
        <time>2022-04-06T10:07:47.000Z</time>
      </trkpt>
      <trkpt lat="45.91573" lon="6.19805">
        <ele>606</ele>
        <time>2022-04-06T10:07:48.000Z</time>
      </trkpt>
      <trkpt lat="45.9149" lon="6.19804">
        <ele>612</ele>
        <time>2022-04-06T10:07:49.000Z</time>
      </trkpt>
      <trkpt lat="45.91486" lon="6.19803">
        <ele>612</ele>
        <time>2022-04-06T10:07:50.000Z</time>
      </trkpt>
      <trkpt lat="45.91408" lon="6.19793">
        <ele>599</ele>
        <time>2022-04-06T10:07:51.000Z</time>
      </trkpt>
      <trkpt lat="45.91404" lon="6.19793">
        <ele>599</ele>
        <time>2022-04-06T10:07:52.000Z</time>
      </trkpt>
      <trkpt lat="45.91318" lon="6.19776">
        <ele>593</ele>
        <time>2022-04-06T10:07:53.000Z</time>
      </trkpt>
      <trkpt lat="45.91314" lon="6.19776">
        <ele>593</ele>
        <time>2022-04-06T10:07:54.000Z</time>
      </trkpt>
      <trkpt lat="45.91188" lon="6.19784">
        <ele>569</ele>
        <time>2022-04-06T10:07:55.000Z</time>
      </trkpt>
      <trkpt lat="45.91183" lon="6.19785">
        <ele>569</ele>
        <time>2022-04-06T10:07:56.000Z</time>
      </trkpt>
      <trkpt lat="45.9114" lon="6.19794">
        <ele>571</ele>
        <time>2022-04-06T10:07:57.000Z</time>
      </trkpt>
      <trkpt lat="45.91137" lon="6.19795">
        <ele>571</ele>
        <time>2022-04-06T10:07:58.000Z</time>
      </trkpt>
      <trkpt lat="45.91034" lon="6.19837">
        <ele>565</ele>
        <time>2022-04-06T10:07:59.000Z</time>
      </trkpt>
      <trkpt lat="45.91029" lon="6.19839">
        <ele>565</ele>
        <time>2022-04-06T10:08:00.000Z</time>
      </trkpt>
      <trkpt lat="45.90984" lon="6.1985">
        <ele>565</ele>
        <time>2022-04-06T10:08:01.000Z</time>
      </trkpt>
      <trkpt lat="45.9098" lon="6.1985">
        <ele>565</ele>
        <time>2022-04-06T10:08:02.000Z</time>
      </trkpt>
      <trkpt lat="45.90918" lon="6.19851">
        <ele>576</ele>
        <time>2022-04-06T10:08:03.000Z</time>
      </trkpt>
      <trkpt lat="45.90913" lon="6.19852">
        <ele>576</ele>
        <time>2022-04-06T10:08:04.000Z</time>
      </trkpt>
      <trkpt lat="45.90889" lon="6.19857">
        <ele>592</ele>
        <time>2022-04-06T10:08:05.000Z</time>
      </trkpt>
      <trkpt lat="45.90886" lon="6.19859">
        <ele>592</ele>
        <time>2022-04-06T10:08:06.000Z</time>
      </trkpt>
      <trkpt lat="45.90851" lon="6.1988">
        <ele>592</ele>
        <time>2022-04-06T10:08:07.000Z</time>
      </trkpt>
      <trkpt lat="45.90849" lon="6.19883">
        <ele>592</ele>
        <time>2022-04-06T10:08:08.000Z</time>
      </trkpt>
      <trkpt lat="45.90797" lon="6.19956">
        <ele>595</ele>
        <time>2022-04-06T10:08:09.000Z</time>
      </trkpt>
      <trkpt lat="45.90794" lon="6.1996">
        <ele>595</ele>
        <time>2022-04-06T10:08:10.000Z</time>
      </trkpt>
      <trkpt lat="45.90785" lon="6.19979">
        <ele>578</ele>
        <time>2022-04-06T10:08:11.000Z</time>
      </trkpt>
      <trkpt lat="45.90784" lon="6.19983">
        <ele>578</ele>
        <time>2022-04-06T10:08:12.000Z</time>
      </trkpt>
      <trkpt lat="45.90773" lon="6.20031">
        <ele>578</ele>
        <time>2022-04-06T10:08:13.000Z</time>
      </trkpt>
      <trkpt lat="45.90773" lon="6.20038">
        <ele>578</ele>
        <time>2022-04-06T10:08:14.000Z</time>
      </trkpt>
      <trkpt lat="45.90776" lon="6.20147">
        <ele>562</ele>
        <time>2022-04-06T10:08:15.000Z</time>
      </trkpt>
      <trkpt lat="45.90776" lon="6.20151">
        <ele>562</ele>
        <time>2022-04-06T10:08:16.000Z</time>
      </trkpt>
      <trkpt lat="45.9077" lon="6.20247">
        <ele>553</ele>
        <time>2022-04-06T10:08:17.000Z</time>
      </trkpt>
      <trkpt lat="45.90768" lon="6.20254">
        <ele>553</ele>
        <time>2022-04-06T10:08:18.000Z</time>
      </trkpt>
      <trkpt lat="45.90758" lon="6.20281">
        <ele>553</ele>
        <time>2022-04-06T10:08:19.000Z</time>
      </trkpt>
      <trkpt lat="45.90755" lon="6.20286">
        <ele>553</ele>
        <time>2022-04-06T10:08:20.000Z</time>
      </trkpt>
      <trkpt lat="45.90719" lon="6.20344">
        <ele>567</ele>
        <time>2022-04-06T10:08:21.000Z</time>
      </trkpt>
      <trkpt lat="45.90715" lon="6.20349">
        <ele>567</ele>
        <time>2022-04-06T10:08:22.000Z</time>
      </trkpt>
      <trkpt lat="45.90618" lon="6.20446">
        <ele>562</ele>
        <time>2022-04-06T10:08:23.000Z</time>
      </trkpt>
      <trkpt lat="45.90614" lon="6.20449">
        <ele>562</ele>
        <time>2022-04-06T10:08:24.000Z</time>
      </trkpt>
      <trkpt lat="45.90548" lon="6.20521">
        <ele>602</ele>
        <time>2022-04-06T10:08:25.000Z</time>
      </trkpt>
      <trkpt lat="45.90547" lon="6.20525">
        <ele>602</ele>
        <time>2022-04-06T10:08:26.000Z</time>
      </trkpt>
      <trkpt lat="45.90498" lon="6.20689">
        <ele>549</ele>
        <time>2022-04-06T10:08:27.000Z</time>
      </trkpt>
      <trkpt lat="45.90495" lon="6.20694">
        <ele>549</ele>
        <time>2022-04-06T10:08:28.000Z</time>
      </trkpt>
      <trkpt lat="45.90394" lon="6.2085">
        <ele>539</ele>
        <time>2022-04-06T10:08:29.000Z</time>
      </trkpt>
      <trkpt lat="45.90393" lon="6.20853">
        <ele>539</ele>
        <time>2022-04-06T10:08:30.000Z</time>
      </trkpt>
      <trkpt lat="45.90348" lon="6.2095">
        <ele>547</ele>
        <time>2022-04-06T10:08:31.000Z</time>
      </trkpt>
      <trkpt lat="45.90346" lon="6.20953">
        <ele>547</ele>
        <time>2022-04-06T10:08:32.000Z</time>
      </trkpt>
      <trkpt lat="45.90246" lon="6.21065">
        <ele>536</ele>
        <time>2022-04-06T10:08:33.000Z</time>
      </trkpt>
      <trkpt lat="45.90243" lon="6.21069">
        <ele>536</ele>
        <time>2022-04-06T10:08:34.000Z</time>
      </trkpt>
      <trkpt lat="45.90194" lon="6.21118">
        <ele>584</ele>
        <time>2022-04-06T10:08:35.000Z</time>
      </trkpt>
      <trkpt lat="45.90192" lon="6.2112">
        <ele>584</ele>
        <time>2022-04-06T10:08:36.000Z</time>
      </trkpt>
      <trkpt lat="45.90139" lon="6.2115">
        <ele>570</ele>
        <time>2022-04-06T10:08:37.000Z</time>
      </trkpt>
      <trkpt lat="45.90137" lon="6.21153">
        <ele>570</ele>
        <time>2022-04-06T10:08:38.000Z</time>
      </trkpt>
      <trkpt lat="45.90047" lon="6.21252">
        <ele>555</ele>
        <time>2022-04-06T10:08:39.000Z</time>
      </trkpt>
      <trkpt lat="45.90044" lon="6.21255">
        <ele>555</ele>
        <time>2022-04-06T10:08:40.000Z</time>
      </trkpt>
      <trkpt lat="45.89937" lon="6.21329">
        <ele>549</ele>
        <time>2022-04-06T10:08:41.000Z</time>
      </trkpt>
      <trkpt lat="45.89934" lon="6.21334">
        <ele>549</ele>
        <time>2022-04-06T10:08:42.000Z</time>
      </trkpt>
      <trkpt lat="45.89904" lon="6.21398">
        <ele>530</ele>
        <time>2022-04-06T10:08:43.000Z</time>
      </trkpt>
      <trkpt lat="45.89902" lon="6.21405">
        <ele>530</ele>
        <time>2022-04-06T10:08:44.000Z</time>
      </trkpt>
      <trkpt lat="45.89835" lon="6.21736">
        <ele>530</ele>
        <time>2022-04-06T10:08:45.000Z</time>
      </trkpt>
      <trkpt lat="45.89834" lon="6.21742">
        <ele>530</ele>
        <time>2022-04-06T10:08:46.000Z</time>
      </trkpt>
      <trkpt lat="45.89744" lon="6.22288">
        <ele>537</ele>
        <time>2022-04-06T10:08:47.000Z</time>
      </trkpt>
      <trkpt lat="45.89742" lon="6.22296">
        <ele>537</ele>
        <time>2022-04-06T10:08:48.000Z</time>
      </trkpt>
      <trkpt lat="45.89656" lon="6.22775">
        <ele>541</ele>
        <time>2022-04-06T10:08:49.000Z</time>
      </trkpt>
      <trkpt lat="45.89654" lon="6.22783">
        <ele>541</ele>
        <time>2022-04-06T10:08:50.000Z</time>
      </trkpt>
      <trkpt lat="45.8957" lon="6.23251">
        <ele>539</ele>
        <time>2022-04-06T10:08:51.000Z</time>
      </trkpt>
      <trkpt lat="45.89569" lon="6.23257">
        <ele>539</ele>
        <time>2022-04-06T10:08:52.000Z</time>
      </trkpt>
      <trkpt lat="45.89461" lon="6.23825">
        <ele>549</ele>
        <time>2022-04-06T10:08:53.000Z</time>
      </trkpt>
      <trkpt lat="45.89461" lon="6.2383">
        <ele>549</ele>
        <time>2022-04-06T10:08:54.000Z</time>
      </trkpt>
      <trkpt lat="45.89455" lon="6.23996">
        <ele>549</ele>
        <time>2022-04-06T10:08:55.000Z</time>
      </trkpt>
      <trkpt lat="45.89455" lon="6.24004">
        <ele>549</ele>
        <time>2022-04-06T10:08:56.000Z</time>
      </trkpt>
      <trkpt lat="45.89446" lon="6.24162">
        <ele>553</ele>
        <time>2022-04-06T10:08:57.000Z</time>
      </trkpt>
      <trkpt lat="45.89445" lon="6.24166">
        <ele>553</ele>
        <time>2022-04-06T10:08:58.000Z</time>
      </trkpt>
      <trkpt lat="45.89333" lon="6.24557">
        <ele>549</ele>
        <time>2022-04-06T10:08:59.000Z</time>
      </trkpt>
      <trkpt lat="45.89331" lon="6.24563">
        <ele>549</ele>
        <time>2022-04-06T10:09:00.000Z</time>
      </trkpt>
      <trkpt lat="45.89191" lon="6.25012">
        <ele>556</ele>
        <time>2022-04-06T10:09:01.000Z</time>
      </trkpt>
      <trkpt lat="45.8919" lon="6.25019">
        <ele>556</ele>
        <time>2022-04-06T10:09:02.000Z</time>
      </trkpt>
      <trkpt lat="45.89164" lon="6.25177">
        <ele>554</ele>
        <time>2022-04-06T10:09:03.000Z</time>
      </trkpt>
      <trkpt lat="45.89164" lon="6.25182">
        <ele>554</ele>
        <time>2022-04-06T10:09:04.000Z</time>
      </trkpt>
      <trkpt lat="45.89162" lon="6.25317">
        <ele>556</ele>
        <time>2022-04-06T10:09:05.000Z</time>
      </trkpt>
      <trkpt lat="45.89162" lon="6.25321">
        <ele>556</ele>
        <time>2022-04-06T10:09:06.000Z</time>
      </trkpt>
      <trkpt lat="45.89168" lon="6.25487">
        <ele>558</ele>
        <time>2022-04-06T10:09:07.000Z</time>
      </trkpt>
      <trkpt lat="45.89169" lon="6.25495">
        <ele>558</ele>
        <time>2022-04-06T10:09:08.000Z</time>
      </trkpt>
      <trkpt lat="45.89224" lon="6.25762">
        <ele>558</ele>
        <time>2022-04-06T10:09:09.000Z</time>
      </trkpt>
      <trkpt lat="45.89226" lon="6.25767">
        <ele>558</ele>
        <time>2022-04-06T10:09:10.000Z</time>
      </trkpt>
      <trkpt lat="45.8932" lon="6.26029">
        <ele>556</ele>
        <time>2022-04-06T10:09:11.000Z</time>
      </trkpt>
      <trkpt lat="45.89321" lon="6.26033">
        <ele>556</ele>
        <time>2022-04-06T10:09:12.000Z</time>
      </trkpt>
      <trkpt lat="45.89385" lon="6.26321">
        <ele>577</ele>
        <time>2022-04-06T10:09:13.000Z</time>
      </trkpt>
      <trkpt lat="45.89384" lon="6.26325">
        <ele>577</ele>
        <time>2022-04-06T10:09:14.000Z</time>
      </trkpt>
      <trkpt lat="45.89376" lon="6.26453">
        <ele>571</ele>
        <time>2022-04-06T10:09:15.000Z</time>
      </trkpt>
      <trkpt lat="45.89376" lon="6.26458">
        <ele>571</ele>
        <time>2022-04-06T10:09:16.000Z</time>
      </trkpt>
      <trkpt lat="45.89377" lon="6.26586">
        <ele>574</ele>
        <time>2022-04-06T10:09:17.000Z</time>
      </trkpt>
      <trkpt lat="45.89378" lon="6.26594">
        <ele>574</ele>
        <time>2022-04-06T10:09:18.000Z</time>
      </trkpt>
      <trkpt lat="45.89402" lon="6.26764">
        <ele>567</ele>
        <time>2022-04-06T10:09:19.000Z</time>
      </trkpt>
      <trkpt lat="45.89403" lon="6.26769">
        <ele>567</ele>
        <time>2022-04-06T10:09:20.000Z</time>
      </trkpt>
      <trkpt lat="45.8943" lon="6.26891">
        <ele>575</ele>
        <time>2022-04-06T10:09:21.000Z</time>
      </trkpt>
      <trkpt lat="45.89432" lon="6.26898">
        <ele>591</ele>
        <time>2022-04-06T10:09:22.000Z</time>
      </trkpt>
      <trkpt lat="45.89581" lon="6.27392">
        <ele>573</ele>
        <time>2022-04-06T10:09:23.000Z</time>
      </trkpt>
      <trkpt lat="45.89583" lon="6.27398">
        <ele>575</ele>
        <time>2022-04-06T10:09:24.000Z</time>
      </trkpt>
      <trkpt lat="45.89732" lon="6.27908">
        <ele>577</ele>
        <time>2022-04-06T10:09:25.000Z</time>
      </trkpt>
      <trkpt lat="45.89734" lon="6.27913">
        <ele>577</ele>
        <time>2022-04-06T10:09:26.000Z</time>
      </trkpt>
      <trkpt lat="45.89819" lon="6.28172">
        <ele>582</ele>
        <time>2022-04-06T10:09:27.000Z</time>
      </trkpt>
      <trkpt lat="45.8982" lon="6.28177">
        <ele>582</ele>
        <time>2022-04-06T10:09:28.000Z</time>
      </trkpt>
      <trkpt lat="45.8984" lon="6.28266">
        <ele>587</ele>
        <time>2022-04-06T10:09:29.000Z</time>
      </trkpt>
      <trkpt lat="45.8984" lon="6.28272">
        <ele>587</ele>
        <time>2022-04-06T10:09:30.000Z</time>
      </trkpt>
      <trkpt lat="45.89891" lon="6.28856">
        <ele>582</ele>
        <time>2022-04-06T10:09:31.000Z</time>
      </trkpt>
      <trkpt lat="45.89892" lon="6.28862">
        <ele>582</ele>
        <time>2022-04-06T10:09:32.000Z</time>
      </trkpt>
      <trkpt lat="45.8994" lon="6.29148">
        <ele>585</ele>
        <time>2022-04-06T10:09:33.000Z</time>
      </trkpt>
      <trkpt lat="45.8994" lon="6.29154">
        <ele>585</ele>
        <time>2022-04-06T10:09:34.000Z</time>
      </trkpt>
      <trkpt lat="45.89939" lon="6.29204">
        <ele>585</ele>
        <time>2022-04-06T10:09:35.000Z</time>
      </trkpt>
      <trkpt lat="45.89938" lon="6.29209">
        <ele>585</ele>
        <time>2022-04-06T10:09:36.000Z</time>
      </trkpt>
      <trkpt lat="45.89908" lon="6.29378">
        <ele>585</ele>
        <time>2022-04-06T10:09:37.000Z</time>
      </trkpt>
      <trkpt lat="45.89906" lon="6.29384">
        <ele>585</ele>
        <time>2022-04-06T10:09:38.000Z</time>
      </trkpt>
      <trkpt lat="45.89801" lon="6.29562">
        <ele>593</ele>
        <time>2022-04-06T10:09:39.000Z</time>
      </trkpt>
      <trkpt lat="45.89798" lon="6.29567">
        <ele>592</ele>
        <time>2022-04-06T10:09:40.000Z</time>
      </trkpt>
      <trkpt lat="45.89599" lon="6.30018">
        <ele>595</ele>
        <time>2022-04-06T10:09:41.000Z</time>
      </trkpt>
      <trkpt lat="45.89597" lon="6.30024">
        <ele>595</ele>
        <time>2022-04-06T10:09:42.000Z</time>
      </trkpt>
      <trkpt lat="45.89491" lon="6.30267">
        <ele>596</ele>
        <time>2022-04-06T10:09:43.000Z</time>
      </trkpt>
      <trkpt lat="45.89488" lon="6.30273">
        <ele>596</ele>
        <time>2022-04-06T10:09:44.000Z</time>
      </trkpt>
      <trkpt lat="45.89382" lon="6.30516">
        <ele>600</ele>
        <time>2022-04-06T10:09:45.000Z</time>
      </trkpt>
      <trkpt lat="45.89379" lon="6.30522">
        <ele>600</ele>
        <time>2022-04-06T10:09:46.000Z</time>
      </trkpt>
      <trkpt lat="45.89238" lon="6.30825">
        <ele>606</ele>
        <time>2022-04-06T10:09:47.000Z</time>
      </trkpt>
      <trkpt lat="45.89235" lon="6.30831">
        <ele>606</ele>
        <time>2022-04-06T10:09:48.000Z</time>
      </trkpt>
      <trkpt lat="45.89185" lon="6.30917">
        <ele>603</ele>
        <time>2022-04-06T10:09:49.000Z</time>
      </trkpt>
      <trkpt lat="45.89182" lon="6.3092">
        <ele>603</ele>
        <time>2022-04-06T10:09:50.000Z</time>
      </trkpt>
      <trkpt lat="45.89073" lon="6.31052">
        <ele>607</ele>
        <time>2022-04-06T10:09:51.000Z</time>
      </trkpt>
      <trkpt lat="45.8907" lon="6.31055">
        <ele>607</ele>
        <time>2022-04-06T10:09:52.000Z</time>
      </trkpt>
      <trkpt lat="45.8881" lon="6.31349">
        <ele>614</ele>
        <time>2022-04-06T10:09:53.000Z</time>
      </trkpt>
      <trkpt lat="45.88806" lon="6.31354">
        <ele>611</ele>
        <time>2022-04-06T10:09:54.000Z</time>
      </trkpt>
      <trkpt lat="45.88671" lon="6.31514">
        <ele>619</ele>
        <time>2022-04-06T10:09:55.000Z</time>
      </trkpt>
      <trkpt lat="45.88669" lon="6.31517">
        <ele>619</ele>
        <time>2022-04-06T10:09:56.000Z</time>
      </trkpt>
      <trkpt lat="45.88568" lon="6.31719">
        <ele>629</ele>
        <time>2022-04-06T10:09:57.000Z</time>
      </trkpt>
      <trkpt lat="45.88566" lon="6.31724">
        <ele>629</ele>
        <time>2022-04-06T10:09:58.000Z</time>
      </trkpt>
      <trkpt lat="45.88542" lon="6.31775">
        <ele>619</ele>
        <time>2022-04-06T10:09:59.000Z</time>
      </trkpt>
      <trkpt lat="45.88539" lon="6.31782">
        <ele>619</ele>
        <time>2022-04-06T10:10:00.000Z</time>
      </trkpt>
      <trkpt lat="45.8849" lon="6.31906">
        <ele>624</ele>
        <time>2022-04-06T10:10:01.000Z</time>
      </trkpt>
      <trkpt lat="45.88487" lon="6.31912">
        <ele>624</ele>
        <time>2022-04-06T10:10:02.000Z</time>
      </trkpt>
      <trkpt lat="45.88279" lon="6.32253">
        <ele>622</ele>
        <time>2022-04-06T10:10:03.000Z</time>
      </trkpt>
      <trkpt lat="45.88276" lon="6.32257">
        <ele>622</ele>
        <time>2022-04-06T10:10:04.000Z</time>
      </trkpt>
      <trkpt lat="45.88213" lon="6.32342">
        <ele>626</ele>
        <time>2022-04-06T10:10:05.000Z</time>
      </trkpt>
      <trkpt lat="45.8821" lon="6.32348">
        <ele>626</ele>
        <time>2022-04-06T10:10:06.000Z</time>
      </trkpt>
      <trkpt lat="45.88186" lon="6.32395">
        <ele>626</ele>
        <time>2022-04-06T10:10:07.000Z</time>
      </trkpt>
      <trkpt lat="45.88184" lon="6.324">
        <ele>626</ele>
        <time>2022-04-06T10:10:08.000Z</time>
      </trkpt>
      <trkpt lat="45.88176" lon="6.32428">
        <ele>626</ele>
        <time>2022-04-06T10:10:09.000Z</time>
      </trkpt>
      <trkpt lat="45.88178" lon="6.32432">
        <ele>626</ele>
        <time>2022-04-06T10:10:10.000Z</time>
      </trkpt>
      <trkpt lat="45.88234" lon="6.32486">
        <ele>626</ele>
        <time>2022-04-06T10:10:11.000Z</time>
      </trkpt>
      <trkpt lat="45.88235" lon="6.3249">
        <ele>626</ele>
        <time>2022-04-06T10:10:12.000Z</time>
      </trkpt>
      <trkpt lat="45.88252" lon="6.32529">
        <ele>626</ele>
        <time>2022-04-06T10:10:13.000Z</time>
      </trkpt>
      <trkpt lat="45.88254" lon="6.32533">
        <ele>626</ele>
        <time>2022-04-06T10:10:14.000Z</time>
      </trkpt>
      <trkpt lat="45.88288" lon="6.3265">
        <ele>628</ele>
        <time>2022-04-06T10:10:15.000Z</time>
      </trkpt>
      <trkpt lat="45.88287" lon="6.32655">
        <ele>628</ele>
        <time>2022-04-06T10:10:16.000Z</time>
      </trkpt>
      <trkpt lat="45.88273" lon="6.32666">
        <ele>628</ele>
        <time>2022-04-06T10:10:17.000Z</time>
      </trkpt>
      <trkpt lat="45.88268" lon="6.32668">
        <ele>628</ele>
        <time>2022-04-06T10:10:18.000Z</time>
      </trkpt>
      <trkpt lat="45.88242" lon="6.32668">
        <ele>628</ele>
        <time>2022-04-06T10:10:19.000Z</time>
      </trkpt>
      <trkpt lat="45.88239" lon="6.32667">
        <ele>628</ele>
        <time>2022-04-06T10:10:20.000Z</time>
      </trkpt>
      <trkpt lat="45.88205" lon="6.32652">
        <ele>627</ele>
        <time>2022-04-06T10:10:21.000Z</time>
      </trkpt>
      <trkpt lat="45.88201" lon="6.32651">
        <ele>627</ele>
        <time>2022-04-06T10:10:22.000Z</time>
      </trkpt>
      <trkpt lat="45.88112" lon="6.32619">
        <ele>627</ele>
        <time>2022-04-06T10:10:23.000Z</time>
      </trkpt>
      <trkpt lat="45.88109" lon="6.32619">
        <ele>627</ele>
        <time>2022-04-06T10:10:24.000Z</time>
      </trkpt>
      <trkpt lat="45.88019" lon="6.3259">
        <ele>629</ele>
        <time>2022-04-06T10:10:25.000Z</time>
      </trkpt>
      <trkpt lat="45.88016" lon="6.32588">
        <ele>629</ele>
        <time>2022-04-06T10:10:26.000Z</time>
      </trkpt>
      <trkpt lat="45.87988" lon="6.32577">
        <ele>629</ele>
        <time>2022-04-06T10:10:27.000Z</time>
      </trkpt>
      <trkpt lat="45.87984" lon="6.32574">
        <ele>629</ele>
        <time>2022-04-06T10:10:28.000Z</time>
      </trkpt>
      <trkpt lat="45.87963" lon="6.3255">
        <ele>631</ele>
        <time>2022-04-06T10:10:29.000Z</time>
      </trkpt>
      <trkpt lat="45.87959" lon="6.32546">
        <ele>631</ele>
        <time>2022-04-06T10:10:30.000Z</time>
      </trkpt>
      <trkpt lat="45.87933" lon="6.32512">
        <ele>631</ele>
        <time>2022-04-06T10:10:31.000Z</time>
      </trkpt>
      <trkpt lat="45.87931" lon="6.32506">
        <ele>631</ele>
        <time>2022-04-06T10:10:32.000Z</time>
      </trkpt>
      <trkpt lat="45.87926" lon="6.32488">
        <ele>631</ele>
        <time>2022-04-06T10:10:33.000Z</time>
      </trkpt>
      <trkpt lat="45.87923" lon="6.32484">
        <ele>631</ele>
        <time>2022-04-06T10:10:34.000Z</time>
      </trkpt>
      <trkpt lat="45.8787" lon="6.32466">
        <ele>632</ele>
        <time>2022-04-06T10:10:35.000Z</time>
      </trkpt>
      <trkpt lat="45.87867" lon="6.32465">
        <ele>632</ele>
        <time>2022-04-06T10:10:36.000Z</time>
      </trkpt>
      <trkpt lat="45.87709" lon="6.32417">
        <ele>638</ele>
        <time>2022-04-06T10:10:37.000Z</time>
      </trkpt>
      <trkpt lat="45.87706" lon="6.32416">
        <ele>638</ele>
        <time>2022-04-06T10:10:38.000Z</time>
      </trkpt>
      <trkpt lat="45.87485" lon="6.32349">
        <ele>637</ele>
        <time>2022-04-06T10:10:39.000Z</time>
      </trkpt>
      <trkpt lat="45.8748" lon="6.32347">
        <ele>637</ele>
        <time>2022-04-06T10:10:40.000Z</time>
      </trkpt>
      <trkpt lat="45.87324" lon="6.32301">
        <ele>640</ele>
        <time>2022-04-06T10:10:41.000Z</time>
      </trkpt>
      <trkpt lat="45.87321" lon="6.32301">
        <ele>640</ele>
        <time>2022-04-06T10:10:42.000Z</time>
      </trkpt>
      <trkpt lat="45.87179" lon="6.32321">
        <ele>646</ele>
        <time>2022-04-06T10:10:43.000Z</time>
      </trkpt>
      <trkpt lat="45.87175" lon="6.32322">
        <ele>646</ele>
        <time>2022-04-06T10:10:44.000Z</time>
      </trkpt>
      <trkpt lat="45.8696" lon="6.32409">
        <ele>654</ele>
        <time>2022-04-06T10:10:45.000Z</time>
      </trkpt>
      <trkpt lat="45.86955" lon="6.3241">
        <ele>654</ele>
        <time>2022-04-06T10:10:46.000Z</time>
      </trkpt>
      <trkpt lat="45.86737" lon="6.32437">
        <ele>657</ele>
        <time>2022-04-06T10:10:47.000Z</time>
      </trkpt>
      <trkpt lat="45.86734" lon="6.32437">
        <ele>657</ele>
        <time>2022-04-06T10:10:48.000Z</time>
      </trkpt>
      <trkpt lat="45.86691" lon="6.32446">
        <ele>658</ele>
        <time>2022-04-06T10:10:49.000Z</time>
      </trkpt>
      <trkpt lat="45.86689" lon="6.32448">
        <ele>658</ele>
        <time>2022-04-06T10:10:50.000Z</time>
      </trkpt>
      <trkpt lat="45.86622" lon="6.32512">
        <ele>661</ele>
        <time>2022-04-06T10:10:51.000Z</time>
      </trkpt>
      <trkpt lat="45.86618" lon="6.32513">
        <ele>661</ele>
        <time>2022-04-06T10:10:52.000Z</time>
      </trkpt>
      <trkpt lat="45.86548" lon="6.3251">
        <ele>666</ele>
        <time>2022-04-06T10:10:53.000Z</time>
      </trkpt>
      <trkpt lat="45.86545" lon="6.32512">
        <ele>666</ele>
        <time>2022-04-06T10:10:54.000Z</time>
      </trkpt>
      <trkpt lat="45.86521" lon="6.32531">
        <ele>666</ele>
        <time>2022-04-06T10:10:55.000Z</time>
      </trkpt>
      <trkpt lat="45.86519" lon="6.32536">
        <ele>666</ele>
        <time>2022-04-06T10:10:56.000Z</time>
      </trkpt>
      <trkpt lat="45.86503" lon="6.32598">
        <ele>667</ele>
        <time>2022-04-06T10:10:57.000Z</time>
      </trkpt>
      <trkpt lat="45.865" lon="6.32603">
        <ele>667</ele>
        <time>2022-04-06T10:10:58.000Z</time>
      </trkpt>
      <trkpt lat="45.86474" lon="6.3263">
        <ele>667</ele>
        <time>2022-04-06T10:10:59.000Z</time>
      </trkpt>
      <trkpt lat="45.86471" lon="6.32632">
        <ele>670</ele>
        <time>2022-04-06T10:11:00.000Z</time>
      </trkpt>
      <trkpt lat="45.8632" lon="6.3269">
        <ele>678</ele>
        <time>2022-04-06T10:11:01.000Z</time>
      </trkpt>
      <trkpt lat="45.86314" lon="6.32691">
        <ele>678</ele>
        <time>2022-04-06T10:11:02.000Z</time>
      </trkpt>
      <trkpt lat="45.86255" lon="6.32689">
        <ele>686</ele>
        <time>2022-04-06T10:11:03.000Z</time>
      </trkpt>
      <trkpt lat="45.86252" lon="6.3269">
        <ele>686</ele>
        <time>2022-04-06T10:11:04.000Z</time>
      </trkpt>
      <trkpt lat="45.86242" lon="6.32693">
        <ele>686</ele>
        <time>2022-04-06T10:11:05.000Z</time>
      </trkpt>
      <trkpt lat="45.86238" lon="6.32695">
        <ele>686</ele>
        <time>2022-04-06T10:11:06.000Z</time>
      </trkpt>
      <trkpt lat="45.86166" lon="6.3273">
        <ele>697</ele>
        <time>2022-04-06T10:11:07.000Z</time>
      </trkpt>
      <trkpt lat="45.86163" lon="6.32731">
        <ele>694</ele>
        <time>2022-04-06T10:11:08.000Z</time>
      </trkpt>
      <trkpt lat="45.86119" lon="6.32749">
        <ele>691</ele>
        <time>2022-04-06T10:11:09.000Z</time>
      </trkpt>
      <trkpt lat="45.86114" lon="6.3275">
        <ele>691</ele>
        <time>2022-04-06T10:11:10.000Z</time>
      </trkpt>
      <trkpt lat="45.86044" lon="6.32739">
        <ele>704</ele>
        <time>2022-04-06T10:11:11.000Z</time>
      </trkpt>
      <trkpt lat="45.8604" lon="6.32741">
        <ele>704</ele>
        <time>2022-04-06T10:11:12.000Z</time>
      </trkpt>
      <trkpt lat="45.86018" lon="6.32775">
        <ele>704</ele>
        <time>2022-04-06T10:11:13.000Z</time>
      </trkpt>
      <trkpt lat="45.86016" lon="6.3278">
        <ele>704</ele>
        <time>2022-04-06T10:11:14.000Z</time>
      </trkpt>
      <trkpt lat="45.85997" lon="6.32852">
        <ele>697</ele>
        <time>2022-04-06T10:11:15.000Z</time>
      </trkpt>
      <trkpt lat="45.85994" lon="6.32857">
        <ele>697</ele>
        <time>2022-04-06T10:11:16.000Z</time>
      </trkpt>
      <trkpt lat="45.85977" lon="6.32868">
        <ele>697</ele>
        <time>2022-04-06T10:11:17.000Z</time>
      </trkpt>
      <trkpt lat="45.85974" lon="6.32868">
        <ele>697</ele>
        <time>2022-04-06T10:11:18.000Z</time>
      </trkpt>
      <trkpt lat="45.85917" lon="6.32864">
        <ele>719</ele>
        <time>2022-04-06T10:11:19.000Z</time>
      </trkpt>
      <trkpt lat="45.85914" lon="6.32866">
        <ele>719</ele>
        <time>2022-04-06T10:11:20.000Z</time>
      </trkpt>
      <trkpt lat="45.8587" lon="6.32911">
        <ele>709</ele>
        <time>2022-04-06T10:11:21.000Z</time>
      </trkpt>
      <trkpt lat="45.85866" lon="6.32912">
        <ele>709</ele>
        <time>2022-04-06T10:11:22.000Z</time>
      </trkpt>
      <trkpt lat="45.85834" lon="6.32904">
        <ele>709</ele>
        <time>2022-04-06T10:11:23.000Z</time>
      </trkpt>
      <trkpt lat="45.8583" lon="6.32904">
        <ele>709</ele>
        <time>2022-04-06T10:11:24.000Z</time>
      </trkpt>
      <trkpt lat="45.85748" lon="6.32929">
        <ele>716</ele>
        <time>2022-04-06T10:11:25.000Z</time>
      </trkpt>
      <trkpt lat="45.85745" lon="6.3293">
        <ele>716</ele>
        <time>2022-04-06T10:11:26.000Z</time>
      </trkpt>
      <trkpt lat="45.85694" lon="6.32937">
        <ele>712</ele>
        <time>2022-04-06T10:11:27.000Z</time>
      </trkpt>
      <trkpt lat="45.85691" lon="6.32936">
        <ele>712</ele>
        <time>2022-04-06T10:11:28.000Z</time>
      </trkpt>
      <trkpt lat="45.85649" lon="6.32927">
        <ele>712</ele>
        <time>2022-04-06T10:11:29.000Z</time>
      </trkpt>
      <trkpt lat="45.85645" lon="6.32924">
        <ele>712</ele>
        <time>2022-04-06T10:11:30.000Z</time>
      </trkpt>
      <trkpt lat="45.85565" lon="6.32852">
        <ele>725</ele>
        <time>2022-04-06T10:11:31.000Z</time>
      </trkpt>
      <trkpt lat="45.8556" lon="6.3285">
        <ele>725</ele>
        <time>2022-04-06T10:11:32.000Z</time>
      </trkpt>
      <trkpt lat="45.8552" lon="6.32842">
        <ele>725</ele>
        <time>2022-04-06T10:11:33.000Z</time>
      </trkpt>
      <trkpt lat="45.85516" lon="6.32842">
        <ele>725</ele>
        <time>2022-04-06T10:11:34.000Z</time>
      </trkpt>
      <trkpt lat="45.85341" lon="6.32868">
        <ele>729</ele>
        <time>2022-04-06T10:11:35.000Z</time>
      </trkpt>
      <trkpt lat="45.85336" lon="6.32869">
        <ele>729</ele>
        <time>2022-04-06T10:11:36.000Z</time>
      </trkpt>
      <trkpt lat="45.85222" lon="6.32894">
        <ele>739</ele>
        <time>2022-04-06T10:11:37.000Z</time>
      </trkpt>
      <trkpt lat="45.85218" lon="6.32893">
        <ele>739</ele>
        <time>2022-04-06T10:11:38.000Z</time>
      </trkpt>
      <trkpt lat="45.85159" lon="6.32865">
        <ele>739</ele>
        <time>2022-04-06T10:11:39.000Z</time>
      </trkpt>
      <trkpt lat="45.85156" lon="6.32866">
        <ele>739</ele>
        <time>2022-04-06T10:11:40.000Z</time>
      </trkpt>
      <trkpt lat="45.8513" lon="6.32872">
        <ele>747</ele>
        <time>2022-04-06T10:11:41.000Z</time>
      </trkpt>
      <trkpt lat="45.85126" lon="6.32873">
        <ele>747</ele>
        <time>2022-04-06T10:11:42.000Z</time>
      </trkpt>
      <trkpt lat="45.85109" lon="6.32875">
        <ele>747</ele>
        <time>2022-04-06T10:11:43.000Z</time>
      </trkpt>
      <trkpt lat="45.85105" lon="6.32874">
        <ele>747</ele>
        <time>2022-04-06T10:11:44.000Z</time>
      </trkpt>
      <trkpt lat="45.85043" lon="6.32862">
        <ele>753</ele>
        <time>2022-04-06T10:11:45.000Z</time>
      </trkpt>
      <trkpt lat="45.85039" lon="6.32863">
        <ele>753</ele>
        <time>2022-04-06T10:11:46.000Z</time>
      </trkpt>
      <trkpt lat="45.84944" lon="6.32891">
        <ele>764</ele>
        <time>2022-04-06T10:11:47.000Z</time>
      </trkpt>
      <trkpt lat="45.84939" lon="6.32894">
        <ele>764</ele>
        <time>2022-04-06T10:11:48.000Z</time>
      </trkpt>
      <trkpt lat="45.84913" lon="6.32922">
        <ele>750</ele>
        <time>2022-04-06T10:11:49.000Z</time>
      </trkpt>
      <trkpt lat="45.84909" lon="6.32926">
        <ele>750</ele>
        <time>2022-04-06T10:11:50.000Z</time>
      </trkpt>
      <trkpt lat="45.84905" lon="6.32931">
        <ele>750</ele>
        <time>2022-04-06T10:11:51.000Z</time>
      </trkpt>
      <trkpt lat="45.849" lon="6.32934">
        <ele>750</ele>
        <time>2022-04-06T10:11:52.000Z</time>
      </trkpt>
      <trkpt lat="45.84843" lon="6.32958">
        <ele>761</ele>
        <time>2022-04-06T10:11:53.000Z</time>
      </trkpt>
      <trkpt lat="45.84839" lon="6.32958">
        <ele>761</ele>
        <time>2022-04-06T10:11:54.000Z</time>
      </trkpt>
      <trkpt lat="45.84812" lon="6.32958">
        <ele>761</ele>
        <time>2022-04-06T10:11:55.000Z</time>
      </trkpt>
      <trkpt lat="45.84809" lon="6.32958">
        <ele>761</ele>
        <time>2022-04-06T10:11:56.000Z</time>
      </trkpt>
      <trkpt lat="45.84761" lon="6.32946">
        <ele>766</ele>
        <time>2022-04-06T10:11:57.000Z</time>
      </trkpt>
      <trkpt lat="45.84756" lon="6.32946">
        <ele>766</ele>
        <time>2022-04-06T10:11:58.000Z</time>
      </trkpt>
      <trkpt lat="45.84676" lon="6.32952">
        <ele>769</ele>
        <time>2022-04-06T10:11:59.000Z</time>
      </trkpt>
      <trkpt lat="45.84671" lon="6.32953">
        <ele>769</ele>
        <time>2022-04-06T10:12:00.000Z</time>
      </trkpt>
      <trkpt lat="45.84622" lon="6.32973">
        <ele>778</ele>
        <time>2022-04-06T10:12:01.000Z</time>
      </trkpt>
      <trkpt lat="45.84619" lon="6.32975">
        <ele>778</ele>
        <time>2022-04-06T10:12:02.000Z</time>
      </trkpt>
      <trkpt lat="45.84505" lon="6.33054">
        <ele>778</ele>
        <time>2022-04-06T10:12:03.000Z</time>
      </trkpt>
      <trkpt lat="45.84501" lon="6.33056">
        <ele>778</ele>
        <time>2022-04-06T10:12:04.000Z</time>
      </trkpt>
      <trkpt lat="45.84386" lon="6.33123">
        <ele>792</ele>
        <time>2022-04-06T10:12:05.000Z</time>
      </trkpt>
      <trkpt lat="45.84383" lon="6.33126">
        <ele>792</ele>
        <time>2022-04-06T10:12:06.000Z</time>
      </trkpt>
      <trkpt lat="45.8434" lon="6.33178">
        <ele>780</ele>
        <time>2022-04-06T10:12:07.000Z</time>
      </trkpt>
      <trkpt lat="45.84337" lon="6.33181">
        <ele>780</ele>
        <time>2022-04-06T10:12:08.000Z</time>
      </trkpt>
      <trkpt lat="45.84272" lon="6.3322">
        <ele>785</ele>
        <time>2022-04-06T10:12:09.000Z</time>
      </trkpt>
      <trkpt lat="45.84269" lon="6.33221">
        <ele>785</ele>
        <time>2022-04-06T10:12:10.000Z</time>
      </trkpt>
      <trkpt lat="45.84121" lon="6.33239">
        <ele>782</ele>
        <time>2022-04-06T10:12:11.000Z</time>
      </trkpt>
      <trkpt lat="45.84118" lon="6.33238">
        <ele>782</ele>
        <time>2022-04-06T10:12:12.000Z</time>
      </trkpt>
      <trkpt lat="45.84077" lon="6.33219">
        <ele>791</ele>
        <time>2022-04-06T10:12:13.000Z</time>
      </trkpt>
      <trkpt lat="45.84073" lon="6.33219">
        <ele>791</ele>
        <time>2022-04-06T10:12:14.000Z</time>
      </trkpt>
      <trkpt lat="45.84" lon="6.33243">
        <ele>782</ele>
        <time>2022-04-06T10:12:15.000Z</time>
      </trkpt>
      <trkpt lat="45.83996" lon="6.33243">
        <ele>782</ele>
        <time>2022-04-06T10:12:16.000Z</time>
      </trkpt>
      <trkpt lat="45.83738" lon="6.33158">
        <ele>801</ele>
        <time>2022-04-06T10:12:17.000Z</time>
      </trkpt>
      <trkpt lat="45.83734" lon="6.33159">
        <ele>801</ele>
        <time>2022-04-06T10:12:18.000Z</time>
      </trkpt>
      <trkpt lat="45.83648" lon="6.33194">
        <ele>801</ele>
        <time>2022-04-06T10:12:19.000Z</time>
      </trkpt>
      <trkpt lat="45.83644" lon="6.33194">
        <ele>801</ele>
        <time>2022-04-06T10:12:20.000Z</time>
      </trkpt>
      <trkpt lat="45.83264" lon="6.33192">
        <ele>817</ele>
        <time>2022-04-06T10:12:21.000Z</time>
      </trkpt>
      <trkpt lat="45.83261" lon="6.33192">
        <ele>817</ele>
        <time>2022-04-06T10:12:22.000Z</time>
      </trkpt>
      <trkpt lat="45.83197" lon="6.33186">
        <ele>820</ele>
        <time>2022-04-06T10:12:23.000Z</time>
      </trkpt>
      <trkpt lat="45.83194" lon="6.33186">
        <ele>820</ele>
        <time>2022-04-06T10:12:24.000Z</time>
      </trkpt>
      <trkpt lat="45.83069" lon="6.33212">
        <ele>833</ele>
        <time>2022-04-06T10:12:25.000Z</time>
      </trkpt>
      <trkpt lat="45.83066" lon="6.33212">
        <ele>833</ele>
        <time>2022-04-06T10:12:26.000Z</time>
      </trkpt>
      <trkpt lat="45.83005" lon="6.33231">
        <ele>825</ele>
        <time>2022-04-06T10:12:27.000Z</time>
      </trkpt>
      <trkpt lat="45.83002" lon="6.33232">
        <ele>825</ele>
        <time>2022-04-06T10:12:28.000Z</time>
      </trkpt>
      <trkpt lat="45.82677" lon="6.33412">
        <ele>838</ele>
        <time>2022-04-06T10:12:29.000Z</time>
      </trkpt>
      <trkpt lat="45.82672" lon="6.33414">
        <ele>838</ele>
        <time>2022-04-06T10:12:30.000Z</time>
      </trkpt>
      <trkpt lat="45.82544" lon="6.3343">
        <ele>847</ele>
        <time>2022-04-06T10:12:31.000Z</time>
      </trkpt>
      <trkpt lat="45.82539" lon="6.3343">
        <ele>847</ele>
        <time>2022-04-06T10:12:32.000Z</time>
      </trkpt>
      <trkpt lat="45.8241" lon="6.33424">
        <ele>846</ele>
        <time>2022-04-06T10:12:33.000Z</time>
      </trkpt>
      <trkpt lat="45.82406" lon="6.33424">
        <ele>846</ele>
        <time>2022-04-06T10:12:34.000Z</time>
      </trkpt>
      <trkpt lat="45.82297" lon="6.33405">
        <ele>836</ele>
        <time>2022-04-06T10:12:35.000Z</time>
      </trkpt>
      <trkpt lat="45.82293" lon="6.33406">
        <ele>836</ele>
        <time>2022-04-06T10:12:36.000Z</time>
      </trkpt>
      <trkpt lat="45.82131" lon="6.33513">
        <ele>823</ele>
        <time>2022-04-06T10:12:37.000Z</time>
      </trkpt>
      <trkpt lat="45.82127" lon="6.33515">
        <ele>823</ele>
        <time>2022-04-06T10:12:38.000Z</time>
      </trkpt>
      <trkpt lat="45.821" lon="6.33524">
        <ele>823</ele>
        <time>2022-04-06T10:12:39.000Z</time>
      </trkpt>
      <trkpt lat="45.82095" lon="6.33524">
        <ele>823</ele>
        <time>2022-04-06T10:12:40.000Z</time>
      </trkpt>
      <trkpt lat="45.81854" lon="6.33459">
        <ele>817</ele>
        <time>2022-04-06T10:12:41.000Z</time>
      </trkpt>
      <trkpt lat="45.8185" lon="6.33459">
        <ele>817</ele>
        <time>2022-04-06T10:12:42.000Z</time>
      </trkpt>
      <trkpt lat="45.81656" lon="6.33507">
        <ele>815</ele>
        <time>2022-04-06T10:12:43.000Z</time>
      </trkpt>
      <trkpt lat="45.81651" lon="6.33509">
        <ele>815</ele>
        <time>2022-04-06T10:12:44.000Z</time>
      </trkpt>
      <trkpt lat="45.81525" lon="6.33548">
        <ele>808</ele>
        <time>2022-04-06T10:12:45.000Z</time>
      </trkpt>
      <trkpt lat="45.81519" lon="6.33548">
        <ele>808</ele>
        <time>2022-04-06T10:12:46.000Z</time>
      </trkpt>
      <trkpt lat="45.81433" lon="6.33542">
        <ele>804</ele>
        <time>2022-04-06T10:12:47.000Z</time>
      </trkpt>
      <trkpt lat="45.81428" lon="6.33543">
        <ele>804</ele>
        <time>2022-04-06T10:12:48.000Z</time>
      </trkpt>
      <trkpt lat="45.81197" lon="6.33617">
        <ele>791</ele>
        <time>2022-04-06T10:12:49.000Z</time>
      </trkpt>
      <trkpt lat="45.81193" lon="6.33618">
        <ele>791</ele>
        <time>2022-04-06T10:12:50.000Z</time>
      </trkpt>
      <trkpt lat="45.81122" lon="6.33636">
        <ele>783</ele>
        <time>2022-04-06T10:12:51.000Z</time>
      </trkpt>
      <trkpt lat="45.81119" lon="6.33639">
        <ele>783</ele>
        <time>2022-04-06T10:12:52.000Z</time>
      </trkpt>
      <trkpt lat="45.81001" lon="6.33773">
        <ele>786</ele>
        <time>2022-04-06T10:12:53.000Z</time>
      </trkpt>
      <trkpt lat="45.80998" lon="6.33776">
        <ele>786</ele>
        <time>2022-04-06T10:12:54.000Z</time>
      </trkpt>
      <trkpt lat="45.80955" lon="6.33809">
        <ele>774</ele>
        <time>2022-04-06T10:12:55.000Z</time>
      </trkpt>
      <trkpt lat="45.80951" lon="6.33811">
        <ele>774</ele>
        <time>2022-04-06T10:12:56.000Z</time>
      </trkpt>
      <trkpt lat="45.80702" lon="6.33894">
        <ele>754</ele>
        <time>2022-04-06T10:12:57.000Z</time>
      </trkpt>
      <trkpt lat="45.80699" lon="6.33897">
        <ele>754</ele>
        <time>2022-04-06T10:12:58.000Z</time>
      </trkpt>
      <trkpt lat="45.80624" lon="6.3399">
        <ele>766</ele>
        <time>2022-04-06T10:12:59.000Z</time>
      </trkpt>
      <trkpt lat="45.80619" lon="6.33993">
        <ele>766</ele>
        <time>2022-04-06T10:13:00.000Z</time>
      </trkpt>
      <trkpt lat="45.80409" lon="6.34014">
        <ele>755</ele>
        <time>2022-04-06T10:13:01.000Z</time>
      </trkpt>
      <trkpt lat="45.80407" lon="6.34017">
        <ele>755</ele>
        <time>2022-04-06T10:13:02.000Z</time>
      </trkpt>
      <trkpt lat="45.80388" lon="6.34044">
        <ele>749</ele>
        <time>2022-04-06T10:13:03.000Z</time>
      </trkpt>
      <trkpt lat="45.80388" lon="6.3405">
        <ele>749</ele>
        <time>2022-04-06T10:13:04.000Z</time>
      </trkpt>
      <trkpt lat="45.80404" lon="6.34119">
        <ele>766</ele>
        <time>2022-04-06T10:13:05.000Z</time>
      </trkpt>
      <trkpt lat="45.80405" lon="6.34125">
        <ele>766</ele>
        <time>2022-04-06T10:13:06.000Z</time>
      </trkpt>
      <trkpt lat="45.80404" lon="6.34132">
        <ele>766</ele>
        <time>2022-04-06T10:13:07.000Z</time>
      </trkpt>
      <trkpt lat="45.80399" lon="6.34154">
        <ele>776</ele>
        <time>2022-04-06T10:13:08.000Z</time>
      </trkpt>
      <trkpt lat="45.80397" lon="6.34156">
        <ele>776</ele>
        <time>2022-04-06T10:13:09.000Z</time>
      </trkpt>
      <trkpt lat="45.80378" lon="6.34172">
        <ele>771</ele>
        <time>2022-04-06T10:13:10.000Z</time>
      </trkpt>
      <trkpt lat="45.80374" lon="6.34171">
        <ele>771</ele>
        <time>2022-04-06T10:13:11.000Z</time>
      </trkpt>
      <trkpt lat="45.80294" lon="6.34093">
        <ele>762</ele>
        <time>2022-04-06T10:13:12.000Z</time>
      </trkpt>
      <trkpt lat="45.80292" lon="6.34088">
        <ele>762</ele>
        <time>2022-04-06T10:13:13.000Z</time>
      </trkpt>
      <trkpt lat="45.80284" lon="6.34039">
        <ele>756</ele>
        <time>2022-04-06T10:13:14.000Z</time>
      </trkpt>
      <trkpt lat="45.80282" lon="6.34035">
        <ele>756</ele>
        <time>2022-04-06T10:13:15.000Z</time>
      </trkpt>
      <trkpt lat="45.80269" lon="6.34021">
        <ele>756</ele>
        <time>2022-04-06T10:13:16.000Z</time>
      </trkpt>
      <trkpt lat="45.80266" lon="6.34022">
        <ele>756</ele>
        <time>2022-04-06T10:13:17.000Z</time>
      </trkpt>
      <trkpt lat="45.80203" lon="6.34056">
        <ele>754</ele>
        <time>2022-04-06T10:13:18.000Z</time>
      </trkpt>
      <trkpt lat="45.80199" lon="6.34056">
        <ele>754</ele>
        <time>2022-04-06T10:13:19.000Z</time>
      </trkpt>
      <trkpt lat="45.80097" lon="6.34017">
        <ele>749</ele>
        <time>2022-04-06T10:13:20.000Z</time>
      </trkpt>
      <trkpt lat="45.80093" lon="6.34015">
        <ele>749</ele>
        <time>2022-04-06T10:13:21.000Z</time>
      </trkpt>
      <trkpt lat="45.80006" lon="6.33964">
        <ele>731</ele>
        <time>2022-04-06T10:13:22.000Z</time>
      </trkpt>
      <trkpt lat="45.80002" lon="6.33963">
        <ele>731</ele>
        <time>2022-04-06T10:13:23.000Z</time>
      </trkpt>
      <trkpt lat="45.79959" lon="6.33967">
        <ele>730</ele>
        <time>2022-04-06T10:13:24.000Z</time>
      </trkpt>
      <trkpt lat="45.79956" lon="6.33969">
        <ele>730</ele>
        <time>2022-04-06T10:13:25.000Z</time>
      </trkpt>
      <trkpt lat="45.79926" lon="6.33995">
        <ele>743</ele>
        <time>2022-04-06T10:13:26.000Z</time>
      </trkpt>
      <trkpt lat="45.79922" lon="6.33996">
        <ele>743</ele>
        <time>2022-04-06T10:13:27.000Z</time>
      </trkpt>
      <trkpt lat="45.79868" lon="6.33989">
        <ele>751</ele>
        <time>2022-04-06T10:13:28.000Z</time>
      </trkpt>
      <trkpt lat="45.79866" lon="6.33985">
        <ele>751</ele>
        <time>2022-04-06T10:13:29.000Z</time>
      </trkpt>
      <trkpt lat="45.79858" lon="6.33965">
        <ele>729</ele>
        <time>2022-04-06T10:13:30.000Z</time>
      </trkpt>
      <trkpt lat="45.79859" lon="6.3396">
        <ele>729</ele>
        <time>2022-04-06T10:13:31.000Z</time>
      </trkpt>
      <trkpt lat="45.79873" lon="6.33942">
        <ele>729</ele>
        <time>2022-04-06T10:13:32.000Z</time>
      </trkpt>
      <trkpt lat="45.79876" lon="6.33942">
        <ele>729</ele>
        <time>2022-04-06T10:13:33.000Z</time>
      </trkpt>
      <trkpt lat="45.79922" lon="6.33953">
        <ele>730</ele>
        <time>2022-04-06T10:13:34.000Z</time>
      </trkpt>
      <trkpt lat="45.79925" lon="6.33952">
        <ele>730</ele>
        <time>2022-04-06T10:13:35.000Z</time>
      </trkpt>
      <trkpt lat="45.79995" lon="6.33911">
        <ele>731</ele>
        <time>2022-04-06T10:13:36.000Z</time>
      </trkpt>
      <trkpt lat="45.79998" lon="6.33911">
        <ele>731</ele>
        <time>2022-04-06T10:13:37.000Z</time>
      </trkpt>
      <trkpt lat="45.80081" lon="6.33904">
        <ele>730</ele>
        <time>2022-04-06T10:13:38.000Z</time>
      </trkpt>
      <trkpt lat="45.80085" lon="6.33901">
        <ele>730</ele>
        <time>2022-04-06T10:13:39.000Z</time>
      </trkpt>
      <trkpt lat="45.80105" lon="6.33882">
        <ele>712</ele>
        <time>2022-04-06T10:13:40.000Z</time>
      </trkpt>
      <trkpt lat="45.80107" lon="6.33879">
        <ele>712</ele>
        <time>2022-04-06T10:13:41.000Z</time>
      </trkpt>
      <trkpt lat="45.80137" lon="6.33835">
        <ele>712</ele>
        <time>2022-04-06T10:13:42.000Z</time>
      </trkpt>
      <trkpt lat="45.8014" lon="6.33835">
        <ele>718</ele>
        <time>2022-04-06T10:13:43.000Z</time>
      </trkpt>
      <trkpt lat="45.80186" lon="6.33833">
        <ele>718</ele>
        <time>2022-04-06T10:13:44.000Z</time>
      </trkpt>
      <trkpt lat="45.8019" lon="6.3383">
        <ele>718</ele>
        <time>2022-04-06T10:13:45.000Z</time>
      </trkpt>
      <trkpt lat="45.80209" lon="6.33809">
        <ele>718</ele>
        <time>2022-04-06T10:13:46.000Z</time>
      </trkpt>
      <trkpt lat="45.8021" lon="6.33804">
        <ele>718</ele>
        <time>2022-04-06T10:13:47.000Z</time>
      </trkpt>
      <trkpt lat="45.8021" lon="6.33773">
        <ele>718</ele>
        <time>2022-04-06T10:13:48.000Z</time>
      </trkpt>
      <trkpt lat="45.80208" lon="6.33769">
        <ele>718</ele>
        <time>2022-04-06T10:13:49.000Z</time>
      </trkpt>
      <trkpt lat="45.80201" lon="6.33753">
        <ele>718</ele>
        <time>2022-04-06T10:13:50.000Z</time>
      </trkpt>
      <trkpt lat="45.80197" lon="6.3375">
        <ele>718</ele>
        <time>2022-04-06T10:13:51.000Z</time>
      </trkpt>
      <trkpt lat="45.8018" lon="6.33739">
        <ele>718</ele>
        <time>2022-04-06T10:13:52.000Z</time>
      </trkpt>
      <trkpt lat="45.80176" lon="6.33738">
        <ele>718</ele>
        <time>2022-04-06T10:13:53.000Z</time>
      </trkpt>
      <trkpt lat="45.80113" lon="6.33718">
        <ele>747</ele>
        <time>2022-04-06T10:13:54.000Z</time>
      </trkpt>
      <trkpt lat="45.80109" lon="6.33717">
        <ele>747</ele>
        <time>2022-04-06T10:13:55.000Z</time>
      </trkpt>
      <trkpt lat="45.80091" lon="6.33711">
        <ele>747</ele>
        <time>2022-04-06T10:13:56.000Z</time>
      </trkpt>
      <trkpt lat="45.80087" lon="6.33711">
        <ele>747</ele>
        <time>2022-04-06T10:13:57.000Z</time>
      </trkpt>
      <trkpt lat="45.8003" lon="6.33721">
        <ele>740</ele>
        <time>2022-04-06T10:13:58.000Z</time>
      </trkpt>
      <trkpt lat="45.80027" lon="6.33721">
        <ele>740</ele>
        <time>2022-04-06T10:13:59.000Z</time>
      </trkpt>
      <trkpt lat="45.79955" lon="6.3371">
        <ele>739</ele>
        <time>2022-04-06T10:14:00.000Z</time>
      </trkpt>
      <trkpt lat="45.79952" lon="6.33711">
        <ele>739</ele>
        <time>2022-04-06T10:14:01.000Z</time>
      </trkpt>
      <trkpt lat="45.79906" lon="6.33731">
        <ele>717</ele>
        <time>2022-04-06T10:14:02.000Z</time>
      </trkpt>
      <trkpt lat="45.79902" lon="6.33732">
        <ele>717</ele>
        <time>2022-04-06T10:14:03.000Z</time>
      </trkpt>
      <trkpt lat="45.79816" lon="6.33723">
        <ele>735</ele>
        <time>2022-04-06T10:14:04.000Z</time>
      </trkpt>
      <trkpt lat="45.79813" lon="6.33721">
        <ele>735</ele>
        <time>2022-04-06T10:14:05.000Z</time>
      </trkpt>
      <trkpt lat="45.79797" lon="6.33705">
        <ele>729</ele>
        <time>2022-04-06T10:14:06.000Z</time>
      </trkpt>
      <trkpt lat="45.79795" lon="6.33701">
        <ele>729</ele>
        <time>2022-04-06T10:14:07.000Z</time>
      </trkpt>
      <trkpt lat="45.79783" lon="6.33667">
        <ele>729</ele>
        <time>2022-04-06T10:14:08.000Z</time>
      </trkpt>
      <trkpt lat="45.7978" lon="6.33662">
        <ele>729</ele>
        <time>2022-04-06T10:14:09.000Z</time>
      </trkpt>
      <trkpt lat="45.79769" lon="6.3365">
        <ele>729</ele>
        <time>2022-04-06T10:14:10.000Z</time>
      </trkpt>
      <trkpt lat="45.79765" lon="6.33648">
        <ele>729</ele>
        <time>2022-04-06T10:14:11.000Z</time>
      </trkpt>
      <trkpt lat="45.79751" lon="6.33647">
        <ele>746</ele>
        <time>2022-04-06T10:14:12.000Z</time>
      </trkpt>
      <trkpt lat="45.79748" lon="6.33648">
        <ele>729</ele>
        <time>2022-04-06T10:14:13.000Z</time>
      </trkpt>
      <trkpt lat="45.79726" lon="6.33652">
        <ele>729</ele>
        <time>2022-04-06T10:14:14.000Z</time>
      </trkpt>
      <trkpt lat="45.79722" lon="6.33652">
        <ele>729</ele>
        <time>2022-04-06T10:14:15.000Z</time>
      </trkpt>
      <trkpt lat="45.79709" lon="6.33652">
        <ele>726</ele>
        <time>2022-04-06T10:14:16.000Z</time>
      </trkpt>
      <trkpt lat="45.79704" lon="6.3365">
        <ele>726</ele>
        <time>2022-04-06T10:14:17.000Z</time>
      </trkpt>
      <trkpt lat="45.79628" lon="6.33584">
        <ele>741</ele>
        <time>2022-04-06T10:14:18.000Z</time>
      </trkpt>
      <trkpt lat="45.79623" lon="6.33581">
        <ele>741</ele>
        <time>2022-04-06T10:14:19.000Z</time>
      </trkpt>
      <trkpt lat="45.79578" lon="6.33568">
        <ele>741</ele>
        <time>2022-04-06T10:14:20.000Z</time>
      </trkpt>
      <trkpt lat="45.79574" lon="6.33568">
        <ele>741</ele>
        <time>2022-04-06T10:14:21.000Z</time>
      </trkpt>
      <trkpt lat="45.79526" lon="6.33569">
        <ele>742</ele>
        <time>2022-04-06T10:14:22.000Z</time>
      </trkpt>
      <trkpt lat="45.79521" lon="6.33568">
        <ele>742</ele>
        <time>2022-04-06T10:14:23.000Z</time>
      </trkpt>
      <trkpt lat="45.79492" lon="6.33561">
        <ele>758</ele>
        <time>2022-04-06T10:14:24.000Z</time>
      </trkpt>
      <trkpt lat="45.79489" lon="6.33558">
        <ele>758</ele>
        <time>2022-04-06T10:14:25.000Z</time>
      </trkpt>
      <trkpt lat="45.79423" lon="6.33484">
        <ele>743</ele>
        <time>2022-04-06T10:14:26.000Z</time>
      </trkpt>
      <trkpt lat="45.7942" lon="6.3348">
        <ele>764</ele>
        <time>2022-04-06T10:14:27.000Z</time>
      </trkpt>
      <trkpt lat="45.79389" lon="6.33427">
        <ele>764</ele>
        <time>2022-04-06T10:14:28.000Z</time>
      </trkpt>
      <trkpt lat="45.79386" lon="6.33424">
        <ele>750</ele>
        <time>2022-04-06T10:14:29.000Z</time>
      </trkpt>
      <trkpt lat="45.7927" lon="6.33334">
        <ele>757</ele>
        <time>2022-04-06T10:14:30.000Z</time>
      </trkpt>
      <trkpt lat="45.79266" lon="6.3333">
        <ele>757</ele>
        <time>2022-04-06T10:14:31.000Z</time>
      </trkpt>
      <trkpt lat="45.79234" lon="6.33301">
        <ele>777</ele>
        <time>2022-04-06T10:14:32.000Z</time>
      </trkpt>
      <trkpt lat="45.79231" lon="6.33296">
        <ele>777</ele>
        <time>2022-04-06T10:14:33.000Z</time>
      </trkpt>
      <trkpt lat="45.79156" lon="6.33104">
        <ele>779</ele>
        <time>2022-04-06T10:14:34.000Z</time>
      </trkpt>
      <trkpt lat="45.79153" lon="6.33101">
        <ele>779</ele>
        <time>2022-04-06T10:14:35.000Z</time>
      </trkpt>
      <trkpt lat="45.79053" lon="6.33044">
        <ele>776</ele>
        <time>2022-04-06T10:14:36.000Z</time>
      </trkpt>
      <trkpt lat="45.7905" lon="6.33043">
        <ele>776</ele>
        <time>2022-04-06T10:14:37.000Z</time>
      </trkpt>
      <trkpt lat="45.79002" lon="6.33019">
        <ele>776</ele>
        <time>2022-04-06T10:14:38.000Z</time>
      </trkpt>
      <trkpt lat="45.79" lon="6.33016">
        <ele>776</ele>
        <time>2022-04-06T10:14:39.000Z</time>
      </trkpt>
      <trkpt lat="45.78903" lon="6.32898">
        <ele>764</ele>
        <time>2022-04-06T10:14:40.000Z</time>
      </trkpt>
      <trkpt lat="45.78901" lon="6.32895">
        <ele>784</ele>
        <time>2022-04-06T10:14:41.000Z</time>
      </trkpt>
      <trkpt lat="45.78856" lon="6.32804">
        <ele>703</ele>
        <time>2022-04-06T10:14:42.000Z</time>
      </trkpt>
      <trkpt lat="45.78856" lon="6.32798">
        <ele>703</ele>
        <time>2022-04-06T10:14:43.000Z</time>
      </trkpt>
      <trkpt lat="45.78865" lon="6.32754">
        <ele>703</ele>
        <time>2022-04-06T10:14:44.000Z</time>
      </trkpt>
      <trkpt lat="45.78868" lon="6.3275">
        <ele>703</ele>
        <time>2022-04-06T10:14:45.000Z</time>
      </trkpt>
      <trkpt lat="45.78882" lon="6.32738">
        <ele>703</ele>
        <time>2022-04-06T10:14:46.000Z</time>
      </trkpt>
      <trkpt lat="45.78885" lon="6.32736">
        <ele>703</ele>
        <time>2022-04-06T10:14:47.000Z</time>
      </trkpt>
      <trkpt lat="45.78935" lon="6.32719">
        <ele>712</ele>
        <time>2022-04-06T10:14:48.000Z</time>
      </trkpt>
      <trkpt lat="45.7894" lon="6.32717">
        <ele>712</ele>
        <time>2022-04-06T10:14:49.000Z</time>
      </trkpt>
      <trkpt lat="45.78952" lon="6.3271">
        <ele>712</ele>
        <time>2022-04-06T10:14:50.000Z</time>
      </trkpt>
      <trkpt lat="45.78956" lon="6.32706">
        <ele>712</ele>
        <time>2022-04-06T10:14:51.000Z</time>
      </trkpt>
      <trkpt lat="45.78977" lon="6.32687">
        <ele>756</ele>
        <time>2022-04-06T10:14:52.000Z</time>
      </trkpt>
      <trkpt lat="45.7898" lon="6.32683">
        <ele>756</ele>
        <time>2022-04-06T10:14:53.000Z</time>
      </trkpt>
      <trkpt lat="45.79019" lon="6.32636">
        <ele>730</ele>
        <time>2022-04-06T10:14:54.000Z</time>
      </trkpt>
      <trkpt lat="45.79023" lon="6.32632">
        <ele>730</ele>
        <time>2022-04-06T10:14:55.000Z</time>
      </trkpt>
      <trkpt lat="45.79051" lon="6.3259">
        <ele>730</ele>
        <time>2022-04-06T10:14:56.000Z</time>
      </trkpt>
      <trkpt lat="45.79054" lon="6.32585">
        <ele>730</ele>
        <time>2022-04-06T10:14:57.000Z</time>
      </trkpt>
      <trkpt lat="45.79081" lon="6.32528">
        <ele>760</ele>
        <time>2022-04-06T10:14:58.000Z</time>
      </trkpt>
      <trkpt lat="45.79083" lon="6.32524">
        <ele>760</ele>
        <time>2022-04-06T10:14:59.000Z</time>
      </trkpt>
      <trkpt lat="45.79092" lon="6.32496">
        <ele>760</ele>
        <time>2022-04-06T10:15:00.000Z</time>
      </trkpt>
      <trkpt lat="45.79092" lon="6.32491">
        <ele>760</ele>
        <time>2022-04-06T10:15:01.000Z</time>
      </trkpt>
      <trkpt lat="45.79092" lon="6.32464">
        <ele>777</ele>
        <time>2022-04-06T10:15:02.000Z</time>
      </trkpt>
      <trkpt lat="45.79091" lon="6.32458">
        <ele>777</ele>
        <time>2022-04-06T10:15:03.000Z</time>
      </trkpt>
      <trkpt lat="45.79087" lon="6.32444">
        <ele>777</ele>
        <time>2022-04-06T10:15:04.000Z</time>
      </trkpt>
      <trkpt lat="45.79084" lon="6.32438">
        <ele>777</ele>
        <time>2022-04-06T10:15:05.000Z</time>
      </trkpt>
      <trkpt lat="45.79069" lon="6.32423">
        <ele>777</ele>
        <time>2022-04-06T10:15:06.000Z</time>
      </trkpt>
      <trkpt lat="45.79064" lon="6.32419">
        <ele>777</ele>
        <time>2022-04-06T10:15:07.000Z</time>
      </trkpt>
      <trkpt lat="45.79046" lon="6.32402">
        <ele>749</ele>
        <time>2022-04-06T10:15:08.000Z</time>
      </trkpt>
      <trkpt lat="45.79043" lon="6.324">
        <ele>749</ele>
        <time>2022-04-06T10:15:09.000Z</time>
      </trkpt>
      <trkpt lat="45.78985" lon="6.3237">
        <ele>795</ele>
        <time>2022-04-06T10:15:10.000Z</time>
      </trkpt>
      <trkpt lat="45.78981" lon="6.32369">
        <ele>795</ele>
        <time>2022-04-06T10:15:11.000Z</time>
      </trkpt>
      <trkpt lat="45.78916" lon="6.32348">
        <ele>768</ele>
        <time>2022-04-06T10:15:12.000Z</time>
      </trkpt>
      <trkpt lat="45.78911" lon="6.32347">
        <ele>768</ele>
        <time>2022-04-06T10:15:13.000Z</time>
      </trkpt>
      <trkpt lat="45.78885" lon="6.3234">
        <ele>729</ele>
        <time>2022-04-06T10:15:14.000Z</time>
      </trkpt>
      <trkpt lat="45.78881" lon="6.32338">
        <ele>729</ele>
        <time>2022-04-06T10:15:15.000Z</time>
      </trkpt>
      <trkpt lat="45.78852" lon="6.32326">
        <ele>729</ele>
        <time>2022-04-06T10:15:16.000Z</time>
      </trkpt>
      <trkpt lat="45.78849" lon="6.32323">
        <ele>729</ele>
        <time>2022-04-06T10:15:17.000Z</time>
      </trkpt>
      <trkpt lat="45.78809" lon="6.32283">
        <ele>724</ele>
        <time>2022-04-06T10:15:18.000Z</time>
      </trkpt>
      <trkpt lat="45.78809" lon="6.32279">
        <ele>724</ele>
        <time>2022-04-06T10:15:19.000Z</time>
      </trkpt>
      <trkpt lat="45.78806" lon="6.32253">
        <ele>724</ele>
        <time>2022-04-06T10:15:20.000Z</time>
      </trkpt>
      <trkpt lat="45.78807" lon="6.32249">
        <ele>724</ele>
        <time>2022-04-06T10:15:21.000Z</time>
      </trkpt>
      <trkpt lat="45.78814" lon="6.32233">
        <ele>724</ele>
        <time>2022-04-06T10:15:22.000Z</time>
      </trkpt>
      <trkpt lat="45.78818" lon="6.32229">
        <ele>703</ele>
        <time>2022-04-06T10:15:23.000Z</time>
      </trkpt>
      <trkpt lat="45.78843" lon="6.32214">
        <ele>703</ele>
        <time>2022-04-06T10:15:24.000Z</time>
      </trkpt>
      <trkpt lat="45.78848" lon="6.32211">
        <ele>703</ele>
        <time>2022-04-06T10:15:25.000Z</time>
      </trkpt>
      <trkpt lat="45.78875" lon="6.32187">
        <ele>703</ele>
        <time>2022-04-06T10:15:26.000Z</time>
      </trkpt>
      <trkpt lat="45.78878" lon="6.32183">
        <ele>703</ele>
        <time>2022-04-06T10:15:27.000Z</time>
      </trkpt>
      <trkpt lat="45.78941" lon="6.32077">
        <ele>730</ele>
        <time>2022-04-06T10:15:28.000Z</time>
      </trkpt>
      <trkpt lat="45.78941" lon="6.32073">
        <ele>730</ele>
        <time>2022-04-06T10:15:29.000Z</time>
      </trkpt>
      <trkpt lat="45.78942" lon="6.32046">
        <ele>730</ele>
        <time>2022-04-06T10:15:30.000Z</time>
      </trkpt>
      <trkpt lat="45.78941" lon="6.3204">
        <ele>730</ele>
        <time>2022-04-06T10:15:31.000Z</time>
      </trkpt>
      <trkpt lat="45.78935" lon="6.32032">
        <ele>730</ele>
        <time>2022-04-06T10:15:32.000Z</time>
      </trkpt>
      <trkpt lat="45.78933" lon="6.32029">
        <ele>730</ele>
        <time>2022-04-06T10:15:33.000Z</time>
      </trkpt>
      <trkpt lat="45.78881" lon="6.31974">
        <ele>686</ele>
        <time>2022-04-06T10:15:34.000Z</time>
      </trkpt>
      <trkpt lat="45.78878" lon="6.31968">
        <ele>686</ele>
        <time>2022-04-06T10:15:35.000Z</time>
      </trkpt>
      <trkpt lat="45.78874" lon="6.31949">
        <ele>686</ele>
        <time>2022-04-06T10:15:36.000Z</time>
      </trkpt>
      <trkpt lat="45.78875" lon="6.31944">
        <ele>686</ele>
        <time>2022-04-06T10:15:37.000Z</time>
      </trkpt>
      <trkpt lat="45.78883" lon="6.31928">
        <ele>686</ele>
        <time>2022-04-06T10:15:38.000Z</time>
      </trkpt>
      <trkpt lat="45.78886" lon="6.31926">
        <ele>686</ele>
        <time>2022-04-06T10:15:39.000Z</time>
      </trkpt>
      <trkpt lat="45.78905" lon="6.31911">
        <ele>721</ele>
        <time>2022-04-06T10:15:40.000Z</time>
      </trkpt>
      <trkpt lat="45.78907" lon="6.31907">
        <ele>721</ele>
        <time>2022-04-06T10:15:41.000Z</time>
      </trkpt>
      <trkpt lat="45.78909" lon="6.31896">
        <ele>711</ele>
        <time>2022-04-06T10:15:42.000Z</time>
      </trkpt>
      <trkpt lat="45.78909" lon="6.3189">
        <ele>711</ele>
        <time>2022-04-06T10:15:43.000Z</time>
      </trkpt>
      <trkpt lat="45.78906" lon="6.31844">
        <ele>711</ele>
        <time>2022-04-06T10:15:44.000Z</time>
      </trkpt>
      <trkpt lat="45.78905" lon="6.31838">
        <ele>711</ele>
        <time>2022-04-06T10:15:45.000Z</time>
      </trkpt>
      <trkpt lat="45.78886" lon="6.31778">
        <ele>673</ele>
        <time>2022-04-06T10:15:46.000Z</time>
      </trkpt>
      <trkpt lat="45.78888" lon="6.31776">
        <ele>673</ele>
        <time>2022-04-06T10:15:47.000Z</time>
      </trkpt>
      <trkpt lat="45.78937" lon="6.31721">
        <ele>678</ele>
        <time>2022-04-06T10:15:48.000Z</time>
      </trkpt>
      <trkpt lat="45.7894" lon="6.31719">
        <ele>678</ele>
        <time>2022-04-06T10:15:49.000Z</time>
      </trkpt>
      <trkpt lat="45.78986" lon="6.31688">
        <ele>696</ele>
        <time>2022-04-06T10:15:50.000Z</time>
      </trkpt>
      <trkpt lat="45.78989" lon="6.31686">
        <ele>696</ele>
        <time>2022-04-06T10:15:51.000Z</time>
      </trkpt>
      <trkpt lat="45.79023" lon="6.31655">
        <ele>696</ele>
        <time>2022-04-06T10:15:52.000Z</time>
      </trkpt>
      <trkpt lat="45.79024" lon="6.3165">
        <ele>696</ele>
        <time>2022-04-06T10:15:53.000Z</time>
      </trkpt>
      <trkpt lat="45.79027" lon="6.31588">
        <ele>702</ele>
        <time>2022-04-06T10:15:54.000Z</time>
      </trkpt>
      <trkpt lat="45.79025" lon="6.31584">
        <ele>702</ele>
        <time>2022-04-06T10:15:55.000Z</time>
      </trkpt>
      <trkpt lat="45.79016" lon="6.31575">
        <ele>702</ele>
        <time>2022-04-06T10:15:56.000Z</time>
      </trkpt>
      <trkpt lat="45.79012" lon="6.31574">
        <ele>702</ele>
        <time>2022-04-06T10:15:57.000Z</time>
      </trkpt>
      <trkpt lat="45.78994" lon="6.3157">
        <ele>702</ele>
        <time>2022-04-06T10:15:58.000Z</time>
      </trkpt>
      <trkpt lat="45.78991" lon="6.3157">
        <ele>702</ele>
        <time>2022-04-06T10:15:59.000Z</time>
      </trkpt>
      <trkpt lat="45.78964" lon="6.31573">
        <ele>704</ele>
        <time>2022-04-06T10:16:00.000Z</time>
      </trkpt>
      <trkpt lat="45.78961" lon="6.31574">
        <ele>704</ele>
        <time>2022-04-06T10:16:01.000Z</time>
      </trkpt>
      <trkpt lat="45.7895" lon="6.31574">
        <ele>704</ele>
        <time>2022-04-06T10:16:02.000Z</time>
      </trkpt>
      <trkpt lat="45.78948" lon="6.31577">
        <ele>704</ele>
        <time>2022-04-06T10:16:03.000Z</time>
      </trkpt>
      <trkpt lat="45.78925" lon="6.31598">
        <ele>704</ele>
        <time>2022-04-06T10:16:04.000Z</time>
      </trkpt>
      <trkpt lat="45.78922" lon="6.31599">
        <ele>704</ele>
        <time>2022-04-06T10:16:05.000Z</time>
      </trkpt>
      <trkpt lat="45.78836" lon="6.31597">
        <ele>702</ele>
        <time>2022-04-06T10:16:06.000Z</time>
      </trkpt>
      <trkpt lat="45.78832" lon="6.31598">
        <ele>702</ele>
        <time>2022-04-06T10:16:07.000Z</time>
      </trkpt>
      <trkpt lat="45.78752" lon="6.31616">
        <ele>714</ele>
        <time>2022-04-06T10:16:08.000Z</time>
      </trkpt>
      <trkpt lat="45.78749" lon="6.31619">
        <ele>714</ele>
        <time>2022-04-06T10:16:09.000Z</time>
      </trkpt>
      <trkpt lat="45.78738" lon="6.31635">
        <ele>714</ele>
        <time>2022-04-06T10:16:10.000Z</time>
      </trkpt>
      <trkpt lat="45.78735" lon="6.31641">
        <ele>714</ele>
        <time>2022-04-06T10:16:11.000Z</time>
      </trkpt>
      <trkpt lat="45.78726" lon="6.31665">
        <ele>666</ele>
        <time>2022-04-06T10:16:12.000Z</time>
      </trkpt>
      <trkpt lat="45.78723" lon="6.31669">
        <ele>666</ele>
        <time>2022-04-06T10:16:13.000Z</time>
      </trkpt>
      <trkpt lat="45.7871" lon="6.31683">
        <ele>683</ele>
        <time>2022-04-06T10:16:14.000Z</time>
      </trkpt>
      <trkpt lat="45.78706" lon="6.31685">
        <ele>683</ele>
        <time>2022-04-06T10:16:15.000Z</time>
      </trkpt>
      <trkpt lat="45.78684" lon="6.31684">
        <ele>683</ele>
        <time>2022-04-06T10:16:16.000Z</time>
      </trkpt>
      <trkpt lat="45.7868" lon="6.31683">
        <ele>683</ele>
        <time>2022-04-06T10:16:17.000Z</time>
      </trkpt>
      <trkpt lat="45.78654" lon="6.31671">
        <ele>683</ele>
        <time>2022-04-06T10:16:18.000Z</time>
      </trkpt>
      <trkpt lat="45.78649" lon="6.3167">
        <ele>683</ele>
        <time>2022-04-06T10:16:19.000Z</time>
      </trkpt>
      <trkpt lat="45.78623" lon="6.31669">
        <ele>672</ele>
        <time>2022-04-06T10:16:20.000Z</time>
      </trkpt>
      <trkpt lat="45.78617" lon="6.3167">
        <ele>672</ele>
        <time>2022-04-06T10:16:21.000Z</time>
      </trkpt>
      <trkpt lat="45.78587" lon="6.31684">
        <ele>672</ele>
        <time>2022-04-06T10:16:22.000Z</time>
      </trkpt>
      <trkpt lat="45.78583" lon="6.31684">
        <ele>672</ele>
        <time>2022-04-06T10:16:23.000Z</time>
      </trkpt>
      <trkpt lat="45.78543" lon="6.31673">
        <ele>658</ele>
        <time>2022-04-06T10:16:24.000Z</time>
      </trkpt>
      <trkpt lat="45.7854" lon="6.31672">
        <ele>658</ele>
        <time>2022-04-06T10:16:25.000Z</time>
      </trkpt>
      <trkpt lat="45.78512" lon="6.31658">
        <ele>658</ele>
        <time>2022-04-06T10:16:26.000Z</time>
      </trkpt>
      <trkpt lat="45.78507" lon="6.31657">
        <ele>658</ele>
        <time>2022-04-06T10:16:27.000Z</time>
      </trkpt>
      <trkpt lat="45.78472" lon="6.31652">
        <ele>658</ele>
        <time>2022-04-06T10:16:28.000Z</time>
      </trkpt>
      <trkpt lat="45.78467" lon="6.31651">
        <ele>625</ele>
        <time>2022-04-06T10:16:29.000Z</time>
      </trkpt>
      <trkpt lat="45.78451" lon="6.31646">
        <ele>649</ele>
        <time>2022-04-06T10:16:30.000Z</time>
      </trkpt>
      <trkpt lat="45.78449" lon="6.31642">
        <ele>649</ele>
        <time>2022-04-06T10:16:31.000Z</time>
      </trkpt>
      <trkpt lat="45.7844" lon="6.31627">
        <ele>649</ele>
        <time>2022-04-06T10:16:32.000Z</time>
      </trkpt>
      <trkpt lat="45.78438" lon="6.31621">
        <ele>649</ele>
        <time>2022-04-06T10:16:33.000Z</time>
      </trkpt>
      <trkpt lat="45.78427" lon="6.31577">
        <ele>649</ele>
        <time>2022-04-06T10:16:34.000Z</time>
      </trkpt>
      <trkpt lat="45.78425" lon="6.31573">
        <ele>649</ele>
        <time>2022-04-06T10:16:35.000Z</time>
      </trkpt>
      <trkpt lat="45.78416" lon="6.31563">
        <ele>675</ele>
        <time>2022-04-06T10:16:36.000Z</time>
      </trkpt>
      <trkpt lat="45.78413" lon="6.31561">
        <ele>675</ele>
        <time>2022-04-06T10:16:37.000Z</time>
      </trkpt>
      <trkpt lat="45.78383" lon="6.31545">
        <ele>658</ele>
        <time>2022-04-06T10:16:38.000Z</time>
      </trkpt>
      <trkpt lat="45.78379" lon="6.31544">
        <ele>658</ele>
        <time>2022-04-06T10:16:39.000Z</time>
      </trkpt>
      <trkpt lat="45.78336" lon="6.31542">
        <ele>658</ele>
        <time>2022-04-06T10:16:40.000Z</time>
      </trkpt>
      <trkpt lat="45.78333" lon="6.3154">
        <ele>658</ele>
        <time>2022-04-06T10:16:41.000Z</time>
      </trkpt>
      <trkpt lat="45.78251" lon="6.31474">
        <ele>646</ele>
        <time>2022-04-06T10:16:42.000Z</time>
      </trkpt>
      <trkpt lat="45.78248" lon="6.31469">
        <ele>646</ele>
        <time>2022-04-06T10:16:43.000Z</time>
      </trkpt>
      <trkpt lat="45.78246" lon="6.3145">
        <ele>646</ele>
        <time>2022-04-06T10:16:44.000Z</time>
      </trkpt>
      <trkpt lat="45.78245" lon="6.31444">
        <ele>646</ele>
        <time>2022-04-06T10:16:45.000Z</time>
      </trkpt>
      <trkpt lat="45.78242" lon="6.31434">
        <ele>646</ele>
        <time>2022-04-06T10:16:46.000Z</time>
      </trkpt>
      <trkpt lat="45.78238" lon="6.31429">
        <ele>646</ele>
        <time>2022-04-06T10:16:47.000Z</time>
      </trkpt>
      <trkpt lat="45.78198" lon="6.31398">
        <ele>617</ele>
        <time>2022-04-06T10:16:48.000Z</time>
      </trkpt>
      <trkpt lat="45.78195" lon="6.31395">
        <ele>629</ele>
        <time>2022-04-06T10:16:49.000Z</time>
      </trkpt>
      <trkpt lat="45.78172" lon="6.31367">
        <ele>629</ele>
        <time>2022-04-06T10:16:50.000Z</time>
      </trkpt>
      <trkpt lat="45.78169" lon="6.31361">
        <ele>629</ele>
        <time>2022-04-06T10:16:51.000Z</time>
      </trkpt>
      <trkpt lat="45.78155" lon="6.31323">
        <ele>629</ele>
        <time>2022-04-06T10:16:52.000Z</time>
      </trkpt>
      <trkpt lat="45.78154" lon="6.31318">
        <ele>629</ele>
        <time>2022-04-06T10:16:53.000Z</time>
      </trkpt>
      <trkpt lat="45.7815" lon="6.31257">
        <ele>634</ele>
        <time>2022-04-06T10:16:54.000Z</time>
      </trkpt>
      <trkpt lat="45.7815" lon="6.31253">
        <ele>634</ele>
        <time>2022-04-06T10:16:55.000Z</time>
      </trkpt>
      <trkpt lat="45.78149" lon="6.31234">
        <ele>634</ele>
        <time>2022-04-06T10:16:56.000Z</time>
      </trkpt>
      <trkpt lat="45.78147" lon="6.31231">
        <ele>634</ele>
        <time>2022-04-06T10:16:57.000Z</time>
      </trkpt>
      <trkpt lat="45.78143" lon="6.31227">
        <ele>649</ele>
        <time>2022-04-06T10:16:58.000Z</time>
      </trkpt>
      <trkpt lat="45.7814" lon="6.31226">
        <ele>649</ele>
        <time>2022-04-06T10:16:59.000Z</time>
      </trkpt>
      <trkpt lat="45.78127" lon="6.31222">
        <ele>641</ele>
        <time>2022-04-06T10:17:00.000Z</time>
      </trkpt>
      <trkpt lat="45.78124" lon="6.31222">
        <ele>641</ele>
        <time>2022-04-06T10:17:01.000Z</time>
      </trkpt>
      <trkpt lat="45.78059" lon="6.3123">
        <ele>641</ele>
        <time>2022-04-06T10:17:02.000Z</time>
      </trkpt>
      <trkpt lat="45.78056" lon="6.31231">
        <ele>616</ele>
        <time>2022-04-06T10:17:03.000Z</time>
      </trkpt>
      <trkpt lat="45.7803" lon="6.31238">
        <ele>603</ele>
        <time>2022-04-06T10:17:04.000Z</time>
      </trkpt>
      <trkpt lat="45.78026" lon="6.31238">
        <ele>603</ele>
        <time>2022-04-06T10:17:05.000Z</time>
      </trkpt>
      <trkpt lat="45.78013" lon="6.31238">
        <ele>603</ele>
        <time>2022-04-06T10:17:06.000Z</time>
      </trkpt>
      <trkpt lat="45.7801" lon="6.31235">
        <ele>603</ele>
        <time>2022-04-06T10:17:07.000Z</time>
      </trkpt>
      <trkpt lat="45.78005" lon="6.31227">
        <ele>617</ele>
        <time>2022-04-06T10:17:08.000Z</time>
      </trkpt>
      <trkpt lat="45.78003" lon="6.31223">
        <ele>617</ele>
        <time>2022-04-06T10:17:09.000Z</time>
      </trkpt>
      <trkpt lat="45.77983" lon="6.31177">
        <ele>617</ele>
        <time>2022-04-06T10:17:10.000Z</time>
      </trkpt>
      <trkpt lat="45.77981" lon="6.31174">
        <ele>617</ele>
        <time>2022-04-06T10:17:11.000Z</time>
      </trkpt>
      <trkpt lat="45.77934" lon="6.31116">
        <ele>611</ele>
        <time>2022-04-06T10:17:12.000Z</time>
      </trkpt>
      <trkpt lat="45.77929" lon="6.31112">
        <ele>611</ele>
        <time>2022-04-06T10:17:13.000Z</time>
      </trkpt>
      <trkpt lat="45.77913" lon="6.31108">
        <ele>611</ele>
        <time>2022-04-06T10:17:14.000Z</time>
      </trkpt>
      <trkpt lat="45.7791" lon="6.31108">
        <ele>611</ele>
        <time>2022-04-06T10:17:15.000Z</time>
      </trkpt>
      <trkpt lat="45.77823" lon="6.31131">
        <ele>614</ele>
        <time>2022-04-06T10:17:16.000Z</time>
      </trkpt>
      <trkpt lat="45.7782" lon="6.31131">
        <ele>614</ele>
        <time>2022-04-06T10:17:17.000Z</time>
      </trkpt>
      <trkpt lat="45.77782" lon="6.31124">
        <ele>602</ele>
        <time>2022-04-06T10:17:18.000Z</time>
      </trkpt>
      <trkpt lat="45.77777" lon="6.31123">
        <ele>602</ele>
        <time>2022-04-06T10:17:19.000Z</time>
      </trkpt>
      <trkpt lat="45.7771" lon="6.31096">
        <ele>593</ele>
        <time>2022-04-06T10:17:20.000Z</time>
      </trkpt>
      <trkpt lat="45.77705" lon="6.31096">
        <ele>593</ele>
        <time>2022-04-06T10:17:21.000Z</time>
      </trkpt>
      <trkpt lat="45.77636" lon="6.31116">
        <ele>590</ele>
        <time>2022-04-06T10:17:22.000Z</time>
      </trkpt>
      <trkpt lat="45.77633" lon="6.31116">
        <ele>590</ele>
        <time>2022-04-06T10:17:23.000Z</time>
      </trkpt>
      <trkpt lat="45.77584" lon="6.31116">
        <ele>590</ele>
        <time>2022-04-06T10:17:24.000Z</time>
      </trkpt>
      <trkpt lat="45.7758" lon="6.31116">
        <ele>590</ele>
        <time>2022-04-06T10:17:25.000Z</time>
      </trkpt>
      <trkpt lat="45.77548" lon="6.31108">
        <ele>581</ele>
        <time>2022-04-06T10:17:26.000Z</time>
      </trkpt>
      <trkpt lat="45.77543" lon="6.31106">
        <ele>581</ele>
        <time>2022-04-06T10:17:27.000Z</time>
      </trkpt>
      <trkpt lat="45.77513" lon="6.3108">
        <ele>581</ele>
        <time>2022-04-06T10:17:28.000Z</time>
      </trkpt>
      <trkpt lat="45.7751" lon="6.31077">
        <ele>581</ele>
        <time>2022-04-06T10:17:29.000Z</time>
      </trkpt>
      <trkpt lat="45.77474" lon="6.31042">
        <ele>598</ele>
        <time>2022-04-06T10:17:30.000Z</time>
      </trkpt>
      <trkpt lat="45.77471" lon="6.3104">
        <ele>578</ele>
        <time>2022-04-06T10:17:31.000Z</time>
      </trkpt>
      <trkpt lat="45.77427" lon="6.31003">
        <ele>578</ele>
        <time>2022-04-06T10:17:32.000Z</time>
      </trkpt>
      <trkpt lat="45.77424" lon="6.31001">
        <ele>578</ele>
        <time>2022-04-06T10:17:33.000Z</time>
      </trkpt>
      <trkpt lat="45.77388" lon="6.30976">
        <ele>600</ele>
        <time>2022-04-06T10:17:34.000Z</time>
      </trkpt>
      <trkpt lat="45.77384" lon="6.30976">
        <ele>577</ele>
        <time>2022-04-06T10:17:35.000Z</time>
      </trkpt>
      <trkpt lat="45.7736" lon="6.30979">
        <ele>577</ele>
        <time>2022-04-06T10:17:36.000Z</time>
      </trkpt>
      <trkpt lat="45.77355" lon="6.30978">
        <ele>577</ele>
        <time>2022-04-06T10:17:37.000Z</time>
      </trkpt>
      <trkpt lat="45.77321" lon="6.30965">
        <ele>577</ele>
        <time>2022-04-06T10:17:38.000Z</time>
      </trkpt>
      <trkpt lat="45.77316" lon="6.30962">
        <ele>577</ele>
        <time>2022-04-06T10:17:39.000Z</time>
      </trkpt>
      <trkpt lat="45.7728" lon="6.30936">
        <ele>558</ele>
        <time>2022-04-06T10:17:40.000Z</time>
      </trkpt>
      <trkpt lat="45.77277" lon="6.30932">
        <ele>558</ele>
        <time>2022-04-06T10:17:41.000Z</time>
      </trkpt>
      <trkpt lat="45.77259" lon="6.30903">
        <ele>558</ele>
        <time>2022-04-06T10:17:42.000Z</time>
      </trkpt>
      <trkpt lat="45.77256" lon="6.309">
        <ele>558</ele>
        <time>2022-04-06T10:17:43.000Z</time>
      </trkpt>
      <trkpt lat="45.77168" lon="6.30851">
        <ele>561</ele>
        <time>2022-04-06T10:17:44.000Z</time>
      </trkpt>
      <trkpt lat="45.77163" lon="6.30849">
        <ele>561</ele>
        <time>2022-04-06T10:17:45.000Z</time>
      </trkpt>
      <trkpt lat="45.77138" lon="6.30836">
        <ele>561</ele>
        <time>2022-04-06T10:17:46.000Z</time>
      </trkpt>
      <trkpt lat="45.77134" lon="6.30833">
        <ele>542</ele>
        <time>2022-04-06T10:17:47.000Z</time>
      </trkpt>
      <trkpt lat="45.77095" lon="6.30785">
        <ele>563</ele>
        <time>2022-04-06T10:17:48.000Z</time>
      </trkpt>
      <trkpt lat="45.77091" lon="6.30783">
        <ele>563</ele>
        <time>2022-04-06T10:17:49.000Z</time>
      </trkpt>
      <trkpt lat="45.77038" lon="6.3077">
        <ele>548</ele>
        <time>2022-04-06T10:17:50.000Z</time>
      </trkpt>
      <trkpt lat="45.77033" lon="6.30769">
        <ele>548</ele>
        <time>2022-04-06T10:17:51.000Z</time>
      </trkpt>
      <trkpt lat="45.76984" lon="6.3076">
        <ele>548</ele>
        <time>2022-04-06T10:17:52.000Z</time>
      </trkpt>
      <trkpt lat="45.76981" lon="6.30758">
        <ele>548</ele>
        <time>2022-04-06T10:17:53.000Z</time>
      </trkpt>
      <trkpt lat="45.7696" lon="6.3074">
        <ele>538</ele>
        <time>2022-04-06T10:17:54.000Z</time>
      </trkpt>
      <trkpt lat="45.76956" lon="6.30738">
        <ele>538</ele>
        <time>2022-04-06T10:17:55.000Z</time>
      </trkpt>
      <trkpt lat="45.76909" lon="6.30723">
        <ele>553</ele>
        <time>2022-04-06T10:17:56.000Z</time>
      </trkpt>
      <trkpt lat="45.76906" lon="6.30721">
        <ele>553</ele>
        <time>2022-04-06T10:17:57.000Z</time>
      </trkpt>
      <trkpt lat="45.76862" lon="6.30692">
        <ele>535</ele>
        <time>2022-04-06T10:17:58.000Z</time>
      </trkpt>
      <trkpt lat="45.76858" lon="6.3069">
        <ele>535</ele>
        <time>2022-04-06T10:17:59.000Z</time>
      </trkpt>
      <trkpt lat="45.76831" lon="6.30673">
        <ele>535</ele>
        <time>2022-04-06T10:18:00.000Z</time>
      </trkpt>
      <trkpt lat="45.76827" lon="6.30671">
        <ele>535</ele>
        <time>2022-04-06T10:18:01.000Z</time>
      </trkpt>
      <trkpt lat="45.76792" lon="6.30649">
        <ele>529</ele>
        <time>2022-04-06T10:18:02.000Z</time>
      </trkpt>
      <trkpt lat="45.76789" lon="6.30648">
        <ele>529</ele>
        <time>2022-04-06T10:18:03.000Z</time>
      </trkpt>
      <trkpt lat="45.76751" lon="6.30648">
        <ele>529</ele>
        <time>2022-04-06T10:18:04.000Z</time>
      </trkpt>
      <trkpt lat="45.76746" lon="6.30647">
        <ele>529</ele>
        <time>2022-04-06T10:18:05.000Z</time>
      </trkpt>
      <trkpt lat="45.76716" lon="6.30632">
        <ele>532</ele>
        <time>2022-04-06T10:18:06.000Z</time>
      </trkpt>
      <trkpt lat="45.76712" lon="6.30632">
        <ele>532</ele>
        <time>2022-04-06T10:18:07.000Z</time>
      </trkpt>
      <trkpt lat="45.76667" lon="6.30637">
        <ele>532</ele>
        <time>2022-04-06T10:18:08.000Z</time>
      </trkpt>
      <trkpt lat="45.76664" lon="6.30636">
        <ele>532</ele>
        <time>2022-04-06T10:18:09.000Z</time>
      </trkpt>
      <trkpt lat="45.76616" lon="6.30622">
        <ele>522</ele>
        <time>2022-04-06T10:18:10.000Z</time>
      </trkpt>
      <trkpt lat="45.76611" lon="6.30622">
        <ele>522</ele>
        <time>2022-04-06T10:18:11.000Z</time>
      </trkpt>
      <trkpt lat="45.76598" lon="6.30626">
        <ele>522</ele>
        <time>2022-04-06T10:18:12.000Z</time>
      </trkpt>
      <trkpt lat="45.76596" lon="6.30627">
        <ele>522</ele>
        <time>2022-04-06T10:18:13.000Z</time>
      </trkpt>
      <trkpt lat="45.76567" lon="6.30652">
        <ele>520</ele>
        <time>2022-04-06T10:18:14.000Z</time>
      </trkpt>
      <trkpt lat="45.76526" lon="6.30667">
        <ele>516</ele>
        <time>2022-04-06T10:18:15.000Z</time>
      </trkpt>
      <trkpt lat="45.7649" lon="6.30682">
        <ele>516</ele>
        <time>2022-04-06T10:18:16.000Z</time>
      </trkpt>
      <trkpt lat="45.76464" lon="6.30696">
        <ele>513</ele>
        <time>2022-04-06T10:18:17.000Z</time>
      </trkpt>
      <trkpt lat="45.76454" lon="6.30687">
        <ele>513</ele>
        <time>2022-04-06T10:18:18.000Z</time>
      </trkpt>
      <trkpt lat="45.76421" lon="6.30617">
        <ele>512</ele>
        <time>2022-04-06T10:18:19.000Z</time>
      </trkpt>
      <trkpt lat="45.76383" lon="6.30532">
        <ele>510</ele>
        <time>2022-04-06T10:18:20.000Z</time>
      </trkpt>
      <trkpt lat="45.76313" lon="6.30353">
        <ele>509</ele>
        <time>2022-04-06T10:18:21.000Z</time>
      </trkpt>
      <trkpt lat="45.7625" lon="6.30223">
        <ele>509</ele>
        <time>2022-04-06T10:18:22.000Z</time>
      </trkpt>
      <trkpt lat="45.76184" lon="6.30068">
        <ele>506</ele>
        <time>2022-04-06T10:18:23.000Z</time>
      </trkpt>
      <trkpt lat="45.76109" lon="6.29894">
        <ele>504</ele>
        <time>2022-04-06T10:18:24.000Z</time>
      </trkpt>
      <trkpt lat="45.76079" lon="6.29853">
        <ele>504</ele>
        <time>2022-04-06T10:18:25.000Z</time>
      </trkpt>
      <trkpt lat="45.76052" lon="6.29828">
        <ele>503</ele>
        <time>2022-04-06T10:18:26.000Z</time>
      </trkpt>
      <trkpt lat="45.75984" lon="6.29793">
        <ele>512</ele>
        <time>2022-04-06T10:18:27.000Z</time>
      </trkpt>
      <trkpt lat="45.7586" lon="6.2972">
        <ele>508</ele>
        <time>2022-04-06T10:18:28.000Z</time>
      </trkpt>
      <trkpt lat="45.75779" lon="6.29675">
        <ele>504</ele>
        <time>2022-04-06T10:18:29.000Z</time>
      </trkpt>
      <trkpt lat="45.7573" lon="6.29667">
        <ele>504</ele>
        <time>2022-04-06T10:18:30.000Z</time>
      </trkpt>
      <trkpt lat="45.75661" lon="6.29697">
        <ele>500</ele>
        <time>2022-04-06T10:18:31.000Z</time>
      </trkpt>
      <trkpt lat="45.75627" lon="6.2972">
        <ele>500</ele>
        <time>2022-04-06T10:18:32.000Z</time>
      </trkpt>
      <trkpt lat="45.75567" lon="6.29724">
        <ele>500</ele>
        <time>2022-04-06T10:18:33.000Z</time>
      </trkpt>
      <trkpt lat="45.75521" lon="6.29715">
        <ele>501</ele>
        <time>2022-04-06T10:18:34.000Z</time>
      </trkpt>
      <trkpt lat="45.75473" lon="6.29685">
        <ele>501</ele>
        <time>2022-04-06T10:18:35.000Z</time>
      </trkpt>
      <trkpt lat="45.754" lon="6.29653">
        <ele>503</ele>
        <time>2022-04-06T10:18:36.000Z</time>
      </trkpt>
      <trkpt lat="45.75356" lon="6.29647">
        <ele>503</ele>
        <time>2022-04-06T10:18:37.000Z</time>
      </trkpt>
      <trkpt lat="45.75296" lon="6.29647">
        <ele>505</ele>
        <time>2022-04-06T10:18:38.000Z</time>
      </trkpt>
      <trkpt lat="45.75228" lon="6.29641">
        <ele>505</ele>
        <time>2022-04-06T10:18:39.000Z</time>
      </trkpt>
      <trkpt lat="45.75167" lon="6.29615">
        <ele>504</ele>
        <time>2022-04-06T10:18:40.000Z</time>
      </trkpt>
      <trkpt lat="45.75174" lon="6.29259">
        <ele>506</ele>
        <time>2022-04-06T10:18:41.000Z</time>
      </trkpt>
      <trkpt lat="45.75176" lon="6.29098">
        <ele>508</ele>
        <time>2022-04-06T10:18:42.000Z</time>
      </trkpt>
      <trkpt lat="45.75194" lon="6.28748">
        <ele>505</ele>
        <time>2022-04-06T10:18:43.000Z</time>
      </trkpt>
      <trkpt lat="45.75201" lon="6.28708">
        <ele>505</ele>
        <time>2022-04-06T10:18:44.000Z</time>
      </trkpt>
      <trkpt lat="45.75237" lon="6.28555">
        <ele>504</ele>
        <time>2022-04-06T10:18:45.000Z</time>
      </trkpt>
      <trkpt lat="45.75296" lon="6.28429">
        <ele>504</ele>
        <time>2022-04-06T10:18:46.000Z</time>
      </trkpt>
      <trkpt lat="45.75347" lon="6.28362">
        <ele>503</ele>
        <time>2022-04-06T10:18:47.000Z</time>
      </trkpt>
      <trkpt lat="45.75453" lon="6.28268">
        <ele>504</ele>
        <time>2022-04-06T10:18:48.000Z</time>
      </trkpt>
      <trkpt lat="45.75633" lon="6.28122">
        <ele>501</ele>
        <time>2022-04-06T10:18:49.000Z</time>
      </trkpt>
      <trkpt lat="45.75725" lon="6.28015">
        <ele>500</ele>
        <time>2022-04-06T10:18:50.000Z</time>
      </trkpt>
      <trkpt lat="45.75781" lon="6.27922">
        <ele>499</ele>
        <time>2022-04-06T10:18:51.000Z</time>
      </trkpt>
      <trkpt lat="45.75854" lon="6.27798">
        <ele>499</ele>
        <time>2022-04-06T10:18:52.000Z</time>
      </trkpt>
      <trkpt lat="45.75899" lon="6.27712">
        <ele>495</ele>
        <time>2022-04-06T10:18:53.000Z</time>
      </trkpt>
      <trkpt lat="45.75942" lon="6.27622">
        <ele>494</ele>
        <time>2022-04-06T10:18:54.000Z</time>
      </trkpt>
      <trkpt lat="45.75975" lon="6.2756">
        <ele>491</ele>
        <time>2022-04-06T10:18:55.000Z</time>
      </trkpt>
      <trkpt lat="45.76071" lon="6.27165">
        <ele>492</ele>
        <time>2022-04-06T10:18:56.000Z</time>
      </trkpt>
      <trkpt lat="45.76136" lon="6.26858">
        <ele>491</ele>
        <time>2022-04-06T10:18:57.000Z</time>
      </trkpt>
      <trkpt lat="45.76174" lon="6.26652">
        <ele>486</ele>
        <time>2022-04-06T10:18:58.000Z</time>
      </trkpt>
      <trkpt lat="45.76242" lon="6.26313">
        <ele>481</ele>
        <time>2022-04-06T10:18:59.000Z</time>
      </trkpt>
      <trkpt lat="45.76266" lon="6.26141">
        <ele>483</ele>
        <time>2022-04-06T10:19:00.000Z</time>
      </trkpt>
      <trkpt lat="45.76273" lon="6.26028">
        <ele>482</ele>
        <time>2022-04-06T10:19:01.000Z</time>
      </trkpt>
      <trkpt lat="45.76267" lon="6.25684">
        <ele>480</ele>
        <time>2022-04-06T10:19:02.000Z</time>
      </trkpt>
      <trkpt lat="45.76252" lon="6.25635">
        <ele>481</ele>
        <time>2022-04-06T10:19:03.000Z</time>
      </trkpt>
      <trkpt lat="45.7624" lon="6.25618">
        <ele>481</ele>
        <time>2022-04-06T10:19:04.000Z</time>
      </trkpt>
      <trkpt lat="45.76218" lon="6.25568">
        <ele>477</ele>
        <time>2022-04-06T10:19:05.000Z</time>
      </trkpt>
      <trkpt lat="45.76215" lon="6.25549">
        <ele>478</ele>
        <time>2022-04-06T10:19:06.000Z</time>
      </trkpt>
      <trkpt lat="45.76229" lon="6.25542">
        <ele>481</ele>
        <time>2022-04-06T10:19:07.000Z</time>
      </trkpt>
      <trkpt lat="45.76249" lon="6.2553">
        <ele>481</ele>
        <time>2022-04-06T10:19:08.000Z</time>
      </trkpt>
      <trkpt lat="45.76264" lon="6.25514">
        <ele>481</ele>
        <time>2022-04-06T10:19:09.000Z</time>
      </trkpt>
      <trkpt lat="45.76279" lon="6.2548">
        <ele>481</ele>
        <time>2022-04-06T10:19:10.000Z</time>
      </trkpt>
      <trkpt lat="45.76299" lon="6.25379">
        <ele>477</ele>
        <time>2022-04-06T10:19:11.000Z</time>
      </trkpt>
      <trkpt lat="45.76332" lon="6.25288">
        <ele>478</ele>
        <time>2022-04-06T10:19:12.000Z</time>
      </trkpt>
      <trkpt lat="45.76358" lon="6.25232">
        <ele>478</ele>
        <time>2022-04-06T10:19:13.000Z</time>
      </trkpt>
      <trkpt lat="45.76411" lon="6.25131">
        <ele>478</ele>
        <time>2022-04-06T10:19:14.000Z</time>
      </trkpt>
      <trkpt lat="45.76489" lon="6.24989">
        <ele>479</ele>
        <time>2022-04-06T10:19:15.000Z</time>
      </trkpt>
      <trkpt lat="45.76558" lon="6.24866">
        <ele>477</ele>
        <time>2022-04-06T10:19:16.000Z</time>
      </trkpt>
      <trkpt lat="45.76613" lon="6.24763">
        <ele>476</ele>
        <time>2022-04-06T10:19:17.000Z</time>
      </trkpt>
      <trkpt lat="45.76667" lon="6.24676">
        <ele>474</ele>
        <time>2022-04-06T10:19:18.000Z</time>
      </trkpt>
      <trkpt lat="45.76749" lon="6.24567">
        <ele>473</ele>
        <time>2022-04-06T10:19:19.000Z</time>
      </trkpt>
      <trkpt lat="45.76806" lon="6.24493">
        <ele>473</ele>
        <time>2022-04-06T10:19:20.000Z</time>
      </trkpt>
      <trkpt lat="45.76887" lon="6.24386">
        <ele>471</ele>
        <time>2022-04-06T10:19:21.000Z</time>
      </trkpt>
      <trkpt lat="45.76985" lon="6.2426">
        <ele>468</ele>
        <time>2022-04-06T10:19:22.000Z</time>
      </trkpt>
      <trkpt lat="45.77055" lon="6.24168">
        <ele>468</ele>
        <time>2022-04-06T10:19:23.000Z</time>
      </trkpt>
      <trkpt lat="45.77154" lon="6.24038">
        <ele>466</ele>
        <time>2022-04-06T10:19:24.000Z</time>
      </trkpt>
      <trkpt lat="45.77222" lon="6.23949">
        <ele>464</ele>
        <time>2022-04-06T10:19:25.000Z</time>
      </trkpt>
      <trkpt lat="45.77269" lon="6.23889">
        <ele>465</ele>
        <time>2022-04-06T10:19:26.000Z</time>
      </trkpt>
      <trkpt lat="45.77372" lon="6.23756">
        <ele>465</ele>
        <time>2022-04-06T10:19:27.000Z</time>
      </trkpt>
      <trkpt lat="45.77459" lon="6.23645">
        <ele>468</ele>
        <time>2022-04-06T10:19:28.000Z</time>
      </trkpt>
      <trkpt lat="45.77604" lon="6.23457">
        <ele>471</ele>
        <time>2022-04-06T10:19:29.000Z</time>
      </trkpt>
      <trkpt lat="45.77763" lon="6.23243">
        <ele>468</ele>
        <time>2022-04-06T10:19:30.000Z</time>
      </trkpt>
      <trkpt lat="45.77759" lon="6.23223">
        <ele>470</ele>
        <time>2022-04-06T10:19:31.000Z</time>
      </trkpt>
      <trkpt lat="45.7782" lon="6.23114">
        <ele>470</ele>
        <time>2022-04-06T10:19:32.000Z</time>
      </trkpt>
      <trkpt lat="45.77839" lon="6.23057">
        <ele>470</ele>
        <time>2022-04-06T10:19:33.000Z</time>
      </trkpt>
      <trkpt lat="45.77992" lon="6.22863">
        <ele>467</ele>
        <time>2022-04-06T10:19:34.000Z</time>
      </trkpt>
      <trkpt lat="45.78009" lon="6.2284">
        <ele>467</ele>
        <time>2022-04-06T10:19:35.000Z</time>
      </trkpt>
      <trkpt lat="45.78035" lon="6.22824">
        <ele>467</ele>
        <time>2022-04-06T10:19:36.000Z</time>
      </trkpt>
      <trkpt lat="45.78074" lon="6.2283">
        <ele>466</ele>
        <time>2022-04-06T10:19:37.000Z</time>
      </trkpt>
      <trkpt lat="45.78098" lon="6.22802">
        <ele>466</ele>
        <time>2022-04-06T10:19:38.000Z</time>
      </trkpt>
      <trkpt lat="45.78197" lon="6.22673">
        <ele>465</ele>
        <time>2022-04-06T10:19:39.000Z</time>
      </trkpt>
      <trkpt lat="45.78316" lon="6.2252">
        <ele>467</ele>
        <time>2022-04-06T10:19:40.000Z</time>
      </trkpt>
      <trkpt lat="45.78365" lon="6.22457">
        <ele>467</ele>
        <time>2022-04-06T10:19:41.000Z</time>
      </trkpt>
      <trkpt lat="45.7842" lon="6.22372">
        <ele>462</ele>
        <time>2022-04-06T10:19:42.000Z</time>
      </trkpt>
      <trkpt lat="45.7847" lon="6.22285">
        <ele>461</ele>
        <time>2022-04-06T10:19:43.000Z</time>
      </trkpt>
      <trkpt lat="45.78509" lon="6.22202">
        <ele>461</ele>
        <time>2022-04-06T10:19:44.000Z</time>
      </trkpt>
      <trkpt lat="45.78666" lon="6.21863">
        <ele>460</ele>
        <time>2022-04-06T10:19:45.000Z</time>
      </trkpt>
      <trkpt lat="45.78727" lon="6.21764">
        <ele>455</ele>
        <time>2022-04-06T10:19:46.000Z</time>
      </trkpt>
      <trkpt lat="45.78862" lon="6.21604">
        <ele>454</ele>
        <time>2022-04-06T10:19:47.000Z</time>
      </trkpt>
      <trkpt lat="45.79009" lon="6.21465">
        <ele>455</ele>
        <time>2022-04-06T10:19:48.000Z</time>
      </trkpt>
      <trkpt lat="45.79142" lon="6.21338">
        <ele>455</ele>
        <time>2022-04-06T10:19:49.000Z</time>
      </trkpt>
      <trkpt lat="45.79246" lon="6.21248">
        <ele>452</ele>
        <time>2022-04-06T10:19:50.000Z</time>
      </trkpt>
      <trkpt lat="45.79359" lon="6.21194">
        <ele>452</ele>
        <time>2022-04-06T10:19:51.000Z</time>
      </trkpt>
      <trkpt lat="45.79388" lon="6.21179">
        <ele>452</ele>
        <time>2022-04-06T10:19:52.000Z</time>
      </trkpt>
      <trkpt lat="45.79459" lon="6.21171">
        <ele>455</ele>
        <time>2022-04-06T10:19:53.000Z</time>
      </trkpt>
      <trkpt lat="45.79711" lon="6.21162">
        <ele>459</ele>
        <time>2022-04-06T10:19:54.000Z</time>
      </trkpt>
      <trkpt lat="45.79903" lon="6.21157">
        <ele>458</ele>
        <time>2022-04-06T10:19:55.000Z</time>
      </trkpt>
      <trkpt lat="45.80116" lon="6.2115">
        <ele>461</ele>
        <time>2022-04-06T10:19:56.000Z</time>
      </trkpt>
      <trkpt lat="45.80288" lon="6.21145">
        <ele>468</ele>
        <time>2022-04-06T10:19:57.000Z</time>
      </trkpt>
      <trkpt lat="45.80407" lon="6.21128">
        <ele>472</ele>
        <time>2022-04-06T10:19:58.000Z</time>
      </trkpt>
      <trkpt lat="45.80592" lon="6.21062">
        <ele>472</ele>
        <time>2022-04-06T10:19:59.000Z</time>
      </trkpt>
      <trkpt lat="45.80692" lon="6.21029">
        <ele>472</ele>
        <time>2022-04-06T10:20:00.000Z</time>
      </trkpt>
      <trkpt lat="45.80925" lon="6.20946">
        <ele>471</ele>
        <time>2022-04-06T10:20:01.000Z</time>
      </trkpt>
      <trkpt lat="45.80941" lon="6.20951">
        <ele>471</ele>
        <time>2022-04-06T10:20:02.000Z</time>
      </trkpt>
      <trkpt lat="45.80951" lon="6.20944">
        <ele>471</ele>
        <time>2022-04-06T10:20:03.000Z</time>
      </trkpt>
      <trkpt lat="45.80955" lon="6.20936">
        <ele>471</ele>
        <time>2022-04-06T10:20:04.000Z</time>
      </trkpt>
      <trkpt lat="45.81028" lon="6.20908">
        <ele>468</ele>
        <time>2022-04-06T10:20:05.000Z</time>
      </trkpt>
      <trkpt lat="45.81119" lon="6.20873">
        <ele>468</ele>
        <time>2022-04-06T10:20:06.000Z</time>
      </trkpt>
      <trkpt lat="45.81231" lon="6.20838">
        <ele>466</ele>
        <time>2022-04-06T10:20:07.000Z</time>
      </trkpt>
      <trkpt lat="45.81292" lon="6.2082">
        <ele>466</ele>
        <time>2022-04-06T10:20:08.000Z</time>
      </trkpt>
      <trkpt lat="45.81343" lon="6.20806">
        <ele>481</ele>
        <time>2022-04-06T10:20:09.000Z</time>
      </trkpt>
      <trkpt lat="45.81389" lon="6.20801">
        <ele>472</ele>
        <time>2022-04-06T10:20:10.000Z</time>
      </trkpt>
      <trkpt lat="45.81476" lon="6.20779">
        <ele>469</ele>
        <time>2022-04-06T10:20:11.000Z</time>
      </trkpt>
      <trkpt lat="45.81496" lon="6.20775">
        <ele>469</ele>
        <time>2022-04-06T10:20:12.000Z</time>
      </trkpt>
      <trkpt lat="45.81553" lon="6.20761">
        <ele>469</ele>
        <time>2022-04-06T10:20:13.000Z</time>
      </trkpt>
      <trkpt lat="45.81585" lon="6.20753">
        <ele>464</ele>
        <time>2022-04-06T10:20:14.000Z</time>
      </trkpt>
      <trkpt lat="45.81634" lon="6.20741">
        <ele>464</ele>
        <time>2022-04-06T10:20:15.000Z</time>
      </trkpt>
      <trkpt lat="45.81705" lon="6.20725">
        <ele>472</ele>
        <time>2022-04-06T10:20:16.000Z</time>
      </trkpt>
      <trkpt lat="45.81814" lon="6.20699">
        <ele>463</ele>
        <time>2022-04-06T10:20:17.000Z</time>
      </trkpt>
      <trkpt lat="45.81911" lon="6.20659">
        <ele>460</ele>
        <time>2022-04-06T10:20:18.000Z</time>
      </trkpt>
      <trkpt lat="45.81967" lon="6.20634">
        <ele>476</ele>
        <time>2022-04-06T10:20:19.000Z</time>
      </trkpt>
      <trkpt lat="45.82022" lon="6.20621">
        <ele>479</ele>
        <time>2022-04-06T10:20:20.000Z</time>
      </trkpt>
      <trkpt lat="45.82073" lon="6.20623">
        <ele>491</ele>
        <time>2022-04-06T10:20:21.000Z</time>
      </trkpt>
      <trkpt lat="45.82095" lon="6.20623">
        <ele>491</ele>
        <time>2022-04-06T10:20:22.000Z</time>
      </trkpt>
      <trkpt lat="45.82144" lon="6.20644">
        <ele>505</ele>
        <time>2022-04-06T10:20:23.000Z</time>
      </trkpt>
      <trkpt lat="45.82181" lon="6.20676">
        <ele>469</ele>
        <time>2022-04-06T10:20:24.000Z</time>
      </trkpt>
      <trkpt lat="45.82203" lon="6.20696">
        <ele>469</ele>
        <time>2022-04-06T10:20:25.000Z</time>
      </trkpt>
      <trkpt lat="45.82268" lon="6.20767">
        <ele>466</ele>
        <time>2022-04-06T10:20:26.000Z</time>
      </trkpt>
      <trkpt lat="45.82335" lon="6.20817">
        <ele>460</ele>
        <time>2022-04-06T10:20:27.000Z</time>
      </trkpt>
      <trkpt lat="45.82391" lon="6.20842">
        <ele>462</ele>
        <time>2022-04-06T10:20:28.000Z</time>
      </trkpt>
      <trkpt lat="45.82452" lon="6.20843">
        <ele>462</ele>
        <time>2022-04-06T10:20:29.000Z</time>
      </trkpt>
      <trkpt lat="45.82467" lon="6.20838">
        <ele>462</ele>
        <time>2022-04-06T10:20:30.000Z</time>
      </trkpt>
      <trkpt lat="45.82489" lon="6.20828">
        <ele>464</ele>
        <time>2022-04-06T10:20:31.000Z</time>
      </trkpt>
      <trkpt lat="45.82517" lon="6.20818">
        <ele>464</ele>
        <time>2022-04-06T10:20:32.000Z</time>
      </trkpt>
      <trkpt lat="45.82545" lon="6.20799">
        <ele>479</ele>
        <time>2022-04-06T10:20:33.000Z</time>
      </trkpt>
      <trkpt lat="45.82558" lon="6.2079">
        <ele>464</ele>
        <time>2022-04-06T10:20:34.000Z</time>
      </trkpt>
      <trkpt lat="45.82582" lon="6.20769">
        <ele>464</ele>
        <time>2022-04-06T10:20:35.000Z</time>
      </trkpt>
      <trkpt lat="45.82616" lon="6.20736">
        <ele>464</ele>
        <time>2022-04-06T10:20:36.000Z</time>
      </trkpt>
      <trkpt lat="45.82653" lon="6.20659">
        <ele>470</ele>
        <time>2022-04-06T10:20:37.000Z</time>
      </trkpt>
      <trkpt lat="45.82697" lon="6.20439">
        <ele>475</ele>
        <time>2022-04-06T10:20:38.000Z</time>
      </trkpt>
      <trkpt lat="45.82691" lon="6.20392">
        <ele>453</ele>
        <time>2022-04-06T10:20:39.000Z</time>
      </trkpt>
      <trkpt lat="45.8269" lon="6.20371">
        <ele>453</ele>
        <time>2022-04-06T10:20:40.000Z</time>
      </trkpt>
      <trkpt lat="45.82669" lon="6.20238">
        <ele>451</ele>
        <time>2022-04-06T10:20:41.000Z</time>
      </trkpt>
      <trkpt lat="45.82648" lon="6.20121">
        <ele>456</ele>
        <time>2022-04-06T10:20:42.000Z</time>
      </trkpt>
      <trkpt lat="45.82626" lon="6.19985">
        <ele>457</ele>
        <time>2022-04-06T10:20:43.000Z</time>
      </trkpt>
      <trkpt lat="45.82622" lon="6.1995">
        <ele>455</ele>
        <time>2022-04-06T10:20:44.000Z</time>
      </trkpt>
      <trkpt lat="45.82584" lon="6.19712">
        <ele>455</ele>
        <time>2022-04-06T10:20:45.000Z</time>
      </trkpt>
      <trkpt lat="45.82573" lon="6.19646">
        <ele>455</ele>
        <time>2022-04-06T10:20:46.000Z</time>
      </trkpt>
      <trkpt lat="45.82564" lon="6.19535">
        <ele>456</ele>
        <time>2022-04-06T10:20:47.000Z</time>
      </trkpt>
      <trkpt lat="45.82566" lon="6.1944">
        <ele>456</ele>
        <time>2022-04-06T10:20:48.000Z</time>
      </trkpt>
      <trkpt lat="45.82575" lon="6.19371">
        <ele>457</ele>
        <time>2022-04-06T10:20:49.000Z</time>
      </trkpt>
      <trkpt lat="45.82583" lon="6.19322">
        <ele>457</ele>
        <time>2022-04-06T10:20:50.000Z</time>
      </trkpt>
      <trkpt lat="45.82616" lon="6.1922">
        <ele>457</ele>
        <time>2022-04-06T10:20:51.000Z</time>
      </trkpt>
      <trkpt lat="45.82666" lon="6.19062">
        <ele>456</ele>
        <time>2022-04-06T10:20:52.000Z</time>
      </trkpt>
      <trkpt lat="45.82669" lon="6.19051">
        <ele>456</ele>
        <time>2022-04-06T10:20:53.000Z</time>
      </trkpt>
      <trkpt lat="45.82727" lon="6.18789">
        <ele>460</ele>
        <time>2022-04-06T10:20:54.000Z</time>
      </trkpt>
      <trkpt lat="45.8278" lon="6.1855">
        <ele>462</ele>
        <time>2022-04-06T10:20:55.000Z</time>
      </trkpt>
      <trkpt lat="45.82848" lon="6.1824">
        <ele>460</ele>
        <time>2022-04-06T10:20:56.000Z</time>
      </trkpt>
      <trkpt lat="45.8294" lon="6.17826">
        <ele>460</ele>
        <time>2022-04-06T10:20:57.000Z</time>
      </trkpt>
      <trkpt lat="45.82955" lon="6.17781">
        <ele>461</ele>
        <time>2022-04-06T10:20:58.000Z</time>
      </trkpt>
      <trkpt lat="45.83191" lon="6.17281">
        <ele>463</ele>
        <time>2022-04-06T10:20:59.000Z</time>
      </trkpt>
      <trkpt lat="45.83499" lon="6.16612">
        <ele>464</ele>
        <time>2022-04-06T10:21:00.000Z</time>
      </trkpt>
      <trkpt lat="45.83654" lon="6.16333">
        <ele>461</ele>
        <time>2022-04-06T10:21:01.000Z</time>
      </trkpt>
      <trkpt lat="45.84124" lon="6.16007">
        <ele>454</ele>
        <time>2022-04-06T10:21:02.000Z</time>
      </trkpt>
      <trkpt lat="45.84324" lon="6.15621">
        <ele>456</ele>
        <time>2022-04-06T10:21:03.000Z</time>
      </trkpt>
      <trkpt lat="45.84417" lon="6.1544">
        <ele>454</ele>
        <time>2022-04-06T10:21:04.000Z</time>
      </trkpt>
      <trkpt lat="45.84542" lon="6.15286">
        <ele>455</ele>
        <time>2022-04-06T10:21:05.000Z</time>
      </trkpt>
      <trkpt lat="45.84931" lon="6.15037">
        <ele>452</ele>
        <time>2022-04-06T10:21:06.000Z</time>
      </trkpt>
      <trkpt lat="45.85098" lon="6.14913">
        <ele>453</ele>
        <time>2022-04-06T10:21:07.000Z</time>
      </trkpt>
      <trkpt lat="45.85152" lon="6.1487">
        <ele>454</ele>
        <time>2022-04-06T10:21:08.000Z</time>
      </trkpt>
      <trkpt lat="45.85331" lon="6.14701">
        <ele>451</ele>
        <time>2022-04-06T10:21:09.000Z</time>
      </trkpt>
      <trkpt lat="45.85371" lon="6.14671">
        <ele>451</ele>
        <time>2022-04-06T10:21:10.000Z</time>
      </trkpt>
      <trkpt lat="45.85408" lon="6.14652">
        <ele>448</ele>
        <time>2022-04-06T10:21:11.000Z</time>
      </trkpt>
      <trkpt lat="45.85507" lon="6.14636">
        <ele>453</ele>
        <time>2022-04-06T10:21:12.000Z</time>
      </trkpt>
      <trkpt lat="45.85551" lon="6.14634">
        <ele>453</ele>
        <time>2022-04-06T10:21:13.000Z</time>
      </trkpt>
      <trkpt lat="45.85602" lon="6.14619">
        <ele>454</ele>
        <time>2022-04-06T10:21:14.000Z</time>
      </trkpt>
      <trkpt lat="45.85651" lon="6.14595">
        <ele>454</ele>
        <time>2022-04-06T10:21:15.000Z</time>
      </trkpt>
      <trkpt lat="45.85695" lon="6.14553">
        <ele>456</ele>
        <time>2022-04-06T10:21:16.000Z</time>
      </trkpt>
      <trkpt lat="45.85712" lon="6.14533">
        <ele>456</ele>
        <time>2022-04-06T10:21:17.000Z</time>
      </trkpt>
      <trkpt lat="45.85745" lon="6.14482">
        <ele>451</ele>
        <time>2022-04-06T10:21:18.000Z</time>
      </trkpt>
      <trkpt lat="45.85792" lon="6.14405">
        <ele>451</ele>
        <time>2022-04-06T10:21:19.000Z</time>
      </trkpt>
      <trkpt lat="45.85816" lon="6.14369">
        <ele>451</ele>
        <time>2022-04-06T10:21:20.000Z</time>
      </trkpt>
      <trkpt lat="45.85875" lon="6.14312">
        <ele>451</ele>
        <time>2022-04-06T10:21:21.000Z</time>
      </trkpt>
      <trkpt lat="45.85925" lon="6.1429">
        <ele>451</ele>
        <time>2022-04-06T10:21:22.000Z</time>
      </trkpt>
      <trkpt lat="45.85943" lon="6.14286">
        <ele>451</ele>
        <time>2022-04-06T10:21:23.000Z</time>
      </trkpt>
      <trkpt lat="45.85969" lon="6.14246">
        <ele>451</ele>
        <time>2022-04-06T10:21:24.000Z</time>
      </trkpt>
      <trkpt lat="45.85993" lon="6.1423">
        <ele>450</ele>
        <time>2022-04-06T10:21:25.000Z</time>
      </trkpt>
      <trkpt lat="45.86031" lon="6.14228">
        <ele>450</ele>
        <time>2022-04-06T10:21:26.000Z</time>
      </trkpt>
      <trkpt lat="45.862" lon="6.14297">
        <ele>453</ele>
        <time>2022-04-06T10:21:27.000Z</time>
      </trkpt>
      <trkpt lat="45.86246" lon="6.14351">
        <ele>454</ele>
        <time>2022-04-06T10:21:28.000Z</time>
      </trkpt>
      <trkpt lat="45.86294" lon="6.1437">
        <ele>454</ele>
        <time>2022-04-06T10:21:29.000Z</time>
      </trkpt>
      <trkpt lat="45.86339" lon="6.14383">
        <ele>455</ele>
        <time>2022-04-06T10:21:30.000Z</time>
      </trkpt>
      <trkpt lat="45.8637" lon="6.14384">
        <ele>455</ele>
        <time>2022-04-06T10:21:31.000Z</time>
      </trkpt>
      <trkpt lat="45.86614" lon="6.14378">
        <ele>455</ele>
        <time>2022-04-06T10:21:32.000Z</time>
      </trkpt>
      <trkpt lat="45.86645" lon="6.14365">
        <ele>452</ele>
        <time>2022-04-06T10:21:33.000Z</time>
      </trkpt>
      <trkpt lat="45.86728" lon="6.14314">
        <ele>450</ele>
        <time>2022-04-06T10:21:34.000Z</time>
      </trkpt>
      <trkpt lat="45.86779" lon="6.14282">
        <ele>451</ele>
        <time>2022-04-06T10:21:35.000Z</time>
      </trkpt>
      <trkpt lat="45.86839" lon="6.14264">
        <ele>450</ele>
        <time>2022-04-06T10:21:36.000Z</time>
      </trkpt>
      <trkpt lat="45.86902" lon="6.14267">
        <ele>452</ele>
        <time>2022-04-06T10:21:37.000Z</time>
      </trkpt>
      <trkpt lat="45.86948" lon="6.1428">
        <ele>452</ele>
        <time>2022-04-06T10:21:38.000Z</time>
      </trkpt>
      <trkpt lat="45.87038" lon="6.14332">
        <ele>453</ele>
        <time>2022-04-06T10:21:39.000Z</time>
      </trkpt>
      <trkpt lat="45.87152" lon="6.14379">
        <ele>462</ele>
        <time>2022-04-06T10:21:40.000Z</time>
      </trkpt>
      <trkpt lat="45.87243" lon="6.14379">
        <ele>458</ele>
        <time>2022-04-06T10:21:41.000Z</time>
      </trkpt>
      <trkpt lat="45.87411" lon="6.14323">
        <ele>455</ele>
        <time>2022-04-06T10:21:42.000Z</time>
      </trkpt>
      <trkpt lat="45.87472" lon="6.14304">
        <ele>459</ele>
        <time>2022-04-06T10:21:43.000Z</time>
      </trkpt>
      <trkpt lat="45.87579" lon="6.14305">
        <ele>456</ele>
        <time>2022-04-06T10:21:44.000Z</time>
      </trkpt>
      <trkpt lat="45.87632" lon="6.14305">
        <ele>456</ele>
        <time>2022-04-06T10:21:45.000Z</time>
      </trkpt>
      <trkpt lat="45.87696" lon="6.14298">
        <ele>459</ele>
        <time>2022-04-06T10:21:46.000Z</time>
      </trkpt>
      <trkpt lat="45.87786" lon="6.14268">
        <ele>457</ele>
        <time>2022-04-06T10:21:47.000Z</time>
      </trkpt>
      <trkpt lat="45.87863" lon="6.14258">
        <ele>458</ele>
        <time>2022-04-06T10:21:48.000Z</time>
      </trkpt>
      <trkpt lat="45.87981" lon="6.14264">
        <ele>459</ele>
        <time>2022-04-06T10:21:49.000Z</time>
      </trkpt>
      <trkpt lat="45.88021" lon="6.14257">
        <ele>459</ele>
        <time>2022-04-06T10:21:50.000Z</time>
      </trkpt>
      <trkpt lat="45.88072" lon="6.14239">
        <ele>457</ele>
        <time>2022-04-06T10:21:51.000Z</time>
      </trkpt>
      <trkpt lat="45.88094" lon="6.14226">
        <ele>463</ele>
        <time>2022-04-06T10:21:52.000Z</time>
      </trkpt>
      <trkpt lat="45.88136" lon="6.14197">
        <ele>463</ele>
        <time>2022-04-06T10:21:53.000Z</time>
      </trkpt>
      <trkpt lat="45.88248" lon="6.14203">
        <ele>461</ele>
        <time>2022-04-06T10:21:54.000Z</time>
      </trkpt>
      <trkpt lat="45.88315" lon="6.14205">
        <ele>467</ele>
        <time>2022-04-06T10:21:55.000Z</time>
      </trkpt>
      <trkpt lat="45.88366" lon="6.14213">
        <ele>467</ele>
        <time>2022-04-06T10:21:56.000Z</time>
      </trkpt>
      <trkpt lat="45.88422" lon="6.14222">
        <ele>483</ele>
        <time>2022-04-06T10:21:57.000Z</time>
      </trkpt>
      <trkpt lat="45.88493" lon="6.14236">
        <ele>447</ele>
        <time>2022-04-06T10:21:58.000Z</time>
      </trkpt>
      <trkpt lat="45.88543" lon="6.14247">
        <ele>447</ele>
        <time>2022-04-06T10:21:59.000Z</time>
      </trkpt>
      <trkpt lat="45.88681" lon="6.14317">
        <ele>447</ele>
        <time>2022-04-06T10:22:00.000Z</time>
      </trkpt>
      <trkpt lat="45.88735" lon="6.14336">
        <ele>447</ele>
        <time>2022-04-06T10:22:01.000Z</time>
      </trkpt>
      <trkpt lat="45.88825" lon="6.14367">
        <ele>472</ele>
        <time>2022-04-06T10:22:02.000Z</time>
      </trkpt>
      <trkpt lat="45.8891" lon="6.14367">
        <ele>474</ele>
        <time>2022-04-06T10:22:03.000Z</time>
      </trkpt>
      <trkpt lat="45.88955" lon="6.14358">
        <ele>474</ele>
        <time>2022-04-06T10:22:04.000Z</time>
      </trkpt>
      <trkpt lat="45.88979" lon="6.14355">
        <ele>459</ele>
        <time>2022-04-06T10:22:05.000Z</time>
      </trkpt>
      <trkpt lat="45.89023" lon="6.14328">
        <ele>459</ele>
        <time>2022-04-06T10:22:06.000Z</time>
      </trkpt>
      <trkpt lat="45.8904" lon="6.14305">
        <ele>473</ele>
        <time>2022-04-06T10:22:07.000Z</time>
      </trkpt>
      <trkpt lat="45.89059" lon="6.14245">
        <ele>447</ele>
        <time>2022-04-06T10:22:08.000Z</time>
      </trkpt>
      <trkpt lat="45.8906" lon="6.14171">
        <ele>454</ele>
        <time>2022-04-06T10:22:09.000Z</time>
      </trkpt>
      <trkpt lat="45.89066" lon="6.14122">
        <ele>450</ele>
        <time>2022-04-06T10:22:10.000Z</time>
      </trkpt>
      <trkpt lat="45.89093" lon="6.14027">
        <ele>454</ele>
        <time>2022-04-06T10:22:11.000Z</time>
      </trkpt>
      <trkpt lat="45.89149" lon="6.13926">
        <ele>455</ele>
        <time>2022-04-06T10:22:12.000Z</time>
      </trkpt>
      <trkpt lat="45.8919" lon="6.13848">
        <ele>451</ele>
        <time>2022-04-06T10:22:13.000Z</time>
      </trkpt>
      <trkpt lat="45.8925" lon="6.13748">
        <ele>450</ele>
        <time>2022-04-06T10:22:14.000Z</time>
      </trkpt>
      <trkpt lat="45.89319" lon="6.13634">
        <ele>454</ele>
        <time>2022-04-06T10:22:15.000Z</time>
      </trkpt>
      <trkpt lat="45.89388" lon="6.13531">
        <ele>463</ele>
        <time>2022-04-06T10:22:16.000Z</time>
      </trkpt>
      <trkpt lat="45.89438" lon="6.1346">
        <ele>460</ele>
        <time>2022-04-06T10:22:17.000Z</time>
      </trkpt>
      <trkpt lat="45.89448" lon="6.13444">
        <ele>460</ele>
        <time>2022-04-06T10:22:18.000Z</time>
      </trkpt>
      <trkpt lat="45.89508" lon="6.13381">
        <ele>453</ele>
        <time>2022-04-06T10:22:19.000Z</time>
      </trkpt>
      <trkpt lat="45.89519" lon="6.13402">
        <ele>451</ele>
        <time>2022-04-06T10:22:20.000Z</time>
      </trkpt>
      <trkpt lat="45.89559" lon="6.13357">
        <ele>450</ele>
        <time>2022-04-06T10:22:21.000Z</time>
      </trkpt>
      <trkpt lat="45.89625" lon="6.13471">
        <ele>449</ele>
        <time>2022-04-06T10:22:22.000Z</time>
      </trkpt>
      <trkpt lat="45.89631" lon="6.13478">
        <ele>447</ele>
        <time>2022-04-06T10:22:23.000Z</time>
      </trkpt>
      <trkpt lat="45.89644" lon="6.13464">
        <ele>446</ele>
        <time>2022-04-06T10:22:24.000Z</time>
      </trkpt>
      <trkpt lat="45.89737" lon="6.13354">
        <ele>453</ele>
        <time>2022-04-06T10:22:25.000Z</time>
      </trkpt>
      <trkpt lat="45.89755" lon="6.13331">
        <ele>453</ele>
        <time>2022-04-06T10:22:26.000Z</time>
      </trkpt>
      <trkpt lat="45.89766" lon="6.13311">
        <ele>453</ele>
        <time>2022-04-06T10:22:27.000Z</time>
      </trkpt>
      <trkpt lat="45.89774" lon="6.133">
        <ele>449</ele>
        <time>2022-04-06T10:22:28.000Z</time>
      </trkpt>
      <trkpt lat="45.89779" lon="6.13285">
        <ele>449</ele>
        <time>2022-04-06T10:22:29.000Z</time>
      </trkpt>
      <trkpt lat="45.89799" lon="6.13223">
        <ele>449</ele>
        <time>2022-04-06T10:22:30.000Z</time>
      </trkpt>
      <trkpt lat="45.8981" lon="6.13178">
        <ele>449</ele>
        <time>2022-04-06T10:22:31.000Z</time>
      </trkpt>
      <trkpt lat="45.89809" lon="6.13075">
        <ele>450</ele>
        <time>2022-04-06T10:22:32.000Z</time>
      </trkpt>
      <trkpt lat="45.8981" lon="6.12919">
        <ele>451</ele>
        <time>2022-04-06T10:22:33.000Z</time>
      </trkpt>
      <trkpt lat="45.89812" lon="6.12912">
        <ele>451</ele>
        <time>2022-04-06T10:22:34.000Z</time>
      </trkpt>
      <trkpt lat="45.89846" lon="6.12912">
        <ele>451</ele>
        <time>2022-04-06T10:22:35.000Z</time>
      </trkpt>
      <trkpt lat="45.89945" lon="6.12847">
        <ele>453</ele>
        <time>2022-04-06T10:22:36.000Z</time>
      </trkpt>
    </trkseg>
  </trk>
</gpx>